<?xml version='1.0' encoding='UTF-8'?>
<gpx version="1.1" creator="https://www.komoot.de" xmlns="http://www.topografix.com/GPX/1/1" xmlns:xsi="http://www.w3.org/2001/XMLSchema-instance" xsi:schemaLocation="http://www.topografix.com/GPX/1/1 http://www.topografix.com/GPX/1/1/gpx.xsd">
  <metadata>
    <name>ADFC-Ri-2026-07-14: zum Lippesee</name>
    <author>
      <link href="https://www.komoot.de">
        <text>komoot</text>
        <type>text/html</type>
      </link>
    </author>
  </metadata>
  <wpt lat="51.754784" lon="8.691262">
    <name>Blick auf den Lippesee</name>
    <sym>Flag, Blue</sym>
  </wpt>
  <wpt lat="51.760284" lon="8.687946">
    <name>Nordufer des Lippesees</name>
    <sym>Flag, Blue</sym>
  </wpt>
  <trk>
    <name>ADFC-Ri-2026-07-14: zum Lippesee</name>
    <type>e_touring_bicycle</type>
    <trkseg>
      <trkpt lat="51.818329" lon="8.430666">
        <ele>78.415293</ele>
        <time>2026-07-07T19:41:50.428Z</time>
      </trkpt>
      <trkpt lat="51.818379" lon="8.430310">
        <ele>78.415293</ele>
        <time>2026-07-07T19:41:55.147Z</time>
      </trkpt>
      <trkpt lat="51.818384" lon="8.430046">
        <ele>78.415293</ele>
        <time>2026-07-07T19:41:58.536Z</time>
      </trkpt>
      <trkpt lat="51.818329" lon="8.430039">
        <ele>78.415293</ele>
        <time>2026-07-07T19:42:00.025Z</time>
      </trkpt>
      <trkpt lat="51.817634" lon="8.429941">
        <ele>78.485677</ele>
        <time>2026-07-07T19:42:19.381Z</time>
      </trkpt>
      <trkpt lat="51.817276" lon="8.429890">
        <ele>78.590017</ele>
        <time>2026-07-07T19:42:29.363Z</time>
      </trkpt>
      <trkpt lat="51.816499" lon="8.429788">
        <ele>78.816345</ele>
        <time>2026-07-07T19:42:50.991Z</time>
      </trkpt>
      <trkpt lat="51.815640" lon="8.429673">
        <ele>79.010698</ele>
        <time>2026-07-07T19:43:14.992Z</time>
      </trkpt>
      <trkpt lat="51.814743" lon="8.429472">
        <ele>79.159782</ele>
        <time>2026-07-07T19:43:40.014Z</time>
      </trkpt>
      <trkpt lat="51.813779" lon="8.429177">
        <ele>79.210311</ele>
        <time>2026-07-07T19:44:07.133Z</time>
      </trkpt>
      <trkpt lat="51.813311" lon="8.429018">
        <ele>79.189398</ele>
        <time>2026-07-07T19:44:20.181Z</time>
      </trkpt>
      <trkpt lat="51.813079" lon="8.428981">
        <ele>79.179203</ele>
        <time>2026-07-07T19:44:26.528Z</time>
      </trkpt>
      <trkpt lat="51.813027" lon="8.428979">
        <ele>79.176929</ele>
        <time>2026-07-07T19:44:27.952Z</time>
      </trkpt>
      <trkpt lat="51.812959" lon="8.428989">
        <ele>79.173943</ele>
        <time>2026-07-07T19:44:29.834Z</time>
      </trkpt>
      <trkpt lat="51.812384" lon="8.429096">
        <ele>79.192946</ele>
        <time>2026-07-07T19:44:45.744Z</time>
      </trkpt>
      <trkpt lat="51.812051" lon="8.429178">
        <ele>79.281541</ele>
        <time>2026-07-07T19:44:55.045Z</time>
      </trkpt>
      <trkpt lat="51.812045" lon="8.429054">
        <ele>79.301767</ele>
        <time>2026-07-07T19:44:57.163Z</time>
      </trkpt>
      <trkpt lat="51.811683" lon="8.429042">
        <ele>79.397001</ele>
        <time>2026-07-07T19:45:05.288Z</time>
      </trkpt>
      <trkpt lat="51.811371" lon="8.428802">
        <ele>79.487871</ele>
        <time>2026-07-07T19:45:13.125Z</time>
      </trkpt>
      <trkpt lat="51.811243" lon="8.428631">
        <ele>79.531536</ele>
        <time>2026-07-07T19:45:16.898Z</time>
      </trkpt>
      <trkpt lat="51.811150" lon="8.428684">
        <ele>79.557471</ele>
        <time>2026-07-07T19:45:19.653Z</time>
      </trkpt>
      <trkpt lat="51.810739" lon="8.428302">
        <ele>79.589497</ele>
        <time>2026-07-07T19:45:32.839Z</time>
      </trkpt>
      <trkpt lat="51.810748" lon="8.428177">
        <ele>79.574926</ele>
        <time>2026-07-07T19:45:34.994Z</time>
      </trkpt>
      <trkpt lat="51.810654" lon="8.428124">
        <ele>79.556283</ele>
        <time>2026-07-07T19:45:37.127Z</time>
      </trkpt>
      <trkpt lat="51.810531" lon="8.428025">
        <ele>79.530553</ele>
        <time>2026-07-07T19:45:40.000Z</time>
      </trkpt>
      <trkpt lat="51.810609" lon="8.427720">
        <ele>79.492336</ele>
        <time>2026-07-07T19:45:45.577Z</time>
      </trkpt>
      <trkpt lat="51.810623" lon="8.427582">
        <ele>79.476143</ele>
        <time>2026-07-07T19:45:48.576Z</time>
      </trkpt>
      <trkpt lat="51.810654" lon="8.427463">
        <ele>79.461191</ele>
        <time>2026-07-07T19:45:50.745Z</time>
      </trkpt>
      <trkpt lat="51.810589" lon="8.427392">
        <ele>79.446502</ele>
        <time>2026-07-07T19:45:52.882Z</time>
      </trkpt>
      <trkpt lat="51.810446" lon="8.427247">
        <ele>79.414894</ele>
        <time>2026-07-07T19:45:58.742Z</time>
      </trkpt>
      <trkpt lat="51.810265" lon="8.427098">
        <ele>79.376858</ele>
        <time>2026-07-07T19:46:04.248Z</time>
      </trkpt>
      <trkpt lat="51.810247" lon="8.426727">
        <ele>79.333769</ele>
        <time>2026-07-07T19:46:10.488Z</time>
      </trkpt>
      <trkpt lat="51.810212" lon="8.426635">
        <ele>79.321261</ele>
        <time>2026-07-07T19:46:12.274Z</time>
      </trkpt>
      <trkpt lat="51.810135" lon="8.426518">
        <ele>79.301475</ele>
        <time>2026-07-07T19:46:15.937Z</time>
      </trkpt>
      <trkpt lat="51.809912" lon="8.426146">
        <ele>79.169747</ele>
        <time>2026-07-07T19:46:24.524Z</time>
      </trkpt>
      <trkpt lat="51.809700" lon="8.425800">
        <ele>79.031941</ele>
        <time>2026-07-07T19:46:32.576Z</time>
      </trkpt>
      <trkpt lat="51.809290" lon="8.425352">
        <ele>78.805542</ele>
        <time>2026-07-07T19:46:45.834Z</time>
      </trkpt>
      <trkpt lat="51.808882" lon="8.424962">
        <ele>78.588691</ele>
        <time>2026-07-07T19:46:58.680Z</time>
      </trkpt>
      <trkpt lat="51.808142" lon="8.424660">
        <ele>78.712461</ele>
        <time>2026-07-07T19:47:19.655Z</time>
      </trkpt>
      <trkpt lat="51.807693" lon="8.424519">
        <ele>78.935976</ele>
        <time>2026-07-07T19:47:32.410Z</time>
      </trkpt>
      <trkpt lat="51.807444" lon="8.424486">
        <ele>79.058065</ele>
        <time>2026-07-07T19:47:39.387Z</time>
      </trkpt>
      <trkpt lat="51.807304" lon="8.424505">
        <ele>79.126720</ele>
        <time>2026-07-07T19:47:43.310Z</time>
      </trkpt>
      <trkpt lat="51.807104" lon="8.424561">
        <ele>79.225910</ele>
        <time>2026-07-07T19:47:49.013Z</time>
      </trkpt>
      <trkpt lat="51.806833" lon="8.424715">
        <ele>79.353675</ele>
        <time>2026-07-07T19:47:57.054Z</time>
      </trkpt>
      <trkpt lat="51.806706" lon="8.424832">
        <ele>79.378031</ele>
        <time>2026-07-07T19:48:01.134Z</time>
      </trkpt>
      <trkpt lat="51.806575" lon="8.425018">
        <ele>79.407078</ele>
        <time>2026-07-07T19:48:06.015Z</time>
      </trkpt>
      <trkpt lat="51.806384" lon="8.425831">
        <ele>79.496686</ele>
        <time>2026-07-07T19:48:21.049Z</time>
      </trkpt>
      <trkpt lat="51.805988" lon="8.425665">
        <ele>79.564854</ele>
        <time>2026-07-07T19:48:32.254Z</time>
      </trkpt>
      <trkpt lat="51.805960" lon="8.425554">
        <ele>79.577206</ele>
        <time>2026-07-07T19:48:33.730Z</time>
      </trkpt>
      <trkpt lat="51.805887" lon="8.425556">
        <ele>79.589372</ele>
        <time>2026-07-07T19:48:35.168Z</time>
      </trkpt>
      <trkpt lat="51.805859" lon="8.425641">
        <ele>79.599295</ele>
        <time>2026-07-07T19:48:36.333Z</time>
      </trkpt>
      <trkpt lat="51.805865" lon="8.425690">
        <ele>79.604442</ele>
        <time>2026-07-07T19:48:36.934Z</time>
      </trkpt>
      <trkpt lat="51.805669" lon="8.425771">
        <ele>79.638151</ele>
        <time>2026-07-07T19:48:40.914Z</time>
      </trkpt>
      <trkpt lat="51.804902" lon="8.425959">
        <ele>79.275129</ele>
        <time>2026-07-07T19:48:56.976Z</time>
      </trkpt>
      <trkpt lat="51.804738" lon="8.426000">
        <ele>79.189857</ele>
        <time>2026-07-07T19:49:00.387Z</time>
      </trkpt>
      <trkpt lat="51.804318" lon="8.426103">
        <ele>78.971574</ele>
        <time>2026-07-07T19:49:09.274Z</time>
      </trkpt>
      <trkpt lat="51.804068" lon="8.426164">
        <ele>78.841659</ele>
        <time>2026-07-07T19:49:14.704Z</time>
      </trkpt>
      <trkpt lat="51.804027" lon="8.426174">
        <ele>78.820353</ele>
        <time>2026-07-07T19:49:15.580Z</time>
      </trkpt>
      <trkpt lat="51.803820" lon="8.426210">
        <ele>78.718775</ele>
        <time>2026-07-07T19:49:20.110Z</time>
      </trkpt>
      <trkpt lat="51.803714" lon="8.426214">
        <ele>78.696042</ele>
        <time>2026-07-07T19:49:22.465Z</time>
      </trkpt>
      <trkpt lat="51.803713" lon="8.426113">
        <ele>78.682649</ele>
        <time>2026-07-07T19:49:23.795Z</time>
      </trkpt>
      <trkpt lat="51.803651" lon="8.426086">
        <ele>78.668883</ele>
        <time>2026-07-07T19:49:25.167Z</time>
      </trkpt>
      <trkpt lat="51.803589" lon="8.426010">
        <ele>78.652202</ele>
        <time>2026-07-07T19:49:26.799Z</time>
      </trkpt>
      <trkpt lat="51.803553" lon="8.425906">
        <ele>78.636400</ele>
        <time>2026-07-07T19:49:28.353Z</time>
      </trkpt>
      <trkpt lat="51.803491" lon="8.425925">
        <ele>78.622870</ele>
        <time>2026-07-07T19:49:29.679Z</time>
      </trkpt>
      <trkpt lat="51.803427" lon="8.425938">
        <ele>78.609040</ele>
        <time>2026-07-07T19:49:31.011Z</time>
      </trkpt>
      <trkpt lat="51.803420" lon="8.426041">
        <ele>78.595302</ele>
        <time>2026-07-07T19:49:32.330Z</time>
      </trkpt>
      <trkpt lat="51.803377" lon="8.426164">
        <ele>78.576569</ele>
        <time>2026-07-07T19:49:34.134Z</time>
      </trkpt>
      <trkpt lat="51.803329" lon="8.426209">
        <ele>78.564673</ele>
        <time>2026-07-07T19:49:35.254Z</time>
      </trkpt>
      <trkpt lat="51.803045" lon="8.426341">
        <ele>78.501317</ele>
        <time>2026-07-07T19:49:41.350Z</time>
      </trkpt>
      <trkpt lat="51.801947" lon="8.426603">
        <ele>78.391856</ele>
        <time>2026-07-07T19:50:04.117Z</time>
      </trkpt>
      <trkpt lat="51.800301" lon="8.427035">
        <ele>78.771870</ele>
        <time>2026-07-07T19:50:40.107Z</time>
      </trkpt>
      <trkpt lat="51.799693" lon="8.427188">
        <ele>79.199579</ele>
        <time>2026-07-07T19:50:53.830Z</time>
      </trkpt>
      <trkpt lat="51.798296" lon="8.427554">
        <ele>79.822054</ele>
        <time>2026-07-07T19:51:25.404Z</time>
      </trkpt>
      <trkpt lat="51.797880" lon="8.427663">
        <ele>79.772341</ele>
        <time>2026-07-07T19:51:34.283Z</time>
      </trkpt>
      <trkpt lat="51.797789" lon="8.427687">
        <ele>79.761465</ele>
        <time>2026-07-07T19:51:36.190Z</time>
      </trkpt>
      <trkpt lat="51.796092" lon="8.428097">
        <ele>79.175778</ele>
        <time>2026-07-07T19:52:10.097Z</time>
      </trkpt>
      <trkpt lat="51.795982" lon="8.428086">
        <ele>79.114509</ele>
        <time>2026-07-07T19:52:12.290Z</time>
      </trkpt>
      <trkpt lat="51.793960" lon="8.428554">
        <ele>78.183503</ele>
        <time>2026-07-07T19:52:54.281Z</time>
      </trkpt>
      <trkpt lat="51.792425" lon="8.428950">
        <ele>77.591993</ele>
        <time>2026-07-07T19:53:25.351Z</time>
      </trkpt>
      <trkpt lat="51.792361" lon="8.428970">
        <ele>77.567527</ele>
        <time>2026-07-07T19:53:26.672Z</time>
      </trkpt>
      <trkpt lat="51.792035" lon="8.429072">
        <ele>77.442898</ele>
        <time>2026-07-07T19:53:33.489Z</time>
      </trkpt>
      <trkpt lat="51.791818" lon="8.429180">
        <ele>77.357679</ele>
        <time>2026-07-07T19:53:38.235Z</time>
      </trkpt>
      <trkpt lat="51.791336" lon="8.429622">
        <ele>77.344283</ele>
        <time>2026-07-07T19:53:50.087Z</time>
      </trkpt>
      <trkpt lat="51.791273" lon="8.429690">
        <ele>77.356252</ele>
        <time>2026-07-07T19:53:51.729Z</time>
      </trkpt>
      <trkpt lat="51.790963" lon="8.430026">
        <ele>77.415222</ele>
        <time>2026-07-07T19:53:59.804Z</time>
      </trkpt>
      <trkpt lat="51.790780" lon="8.430170">
        <ele>77.447379</ele>
        <time>2026-07-07T19:54:04.172Z</time>
      </trkpt>
      <trkpt lat="51.790508" lon="8.430376">
        <ele>77.494837</ele>
        <time>2026-07-07T19:54:10.627Z</time>
      </trkpt>
      <trkpt lat="51.790369" lon="8.430439">
        <ele>77.517647</ele>
        <time>2026-07-07T19:54:13.721Z</time>
      </trkpt>
      <trkpt lat="51.790381" lon="8.430640">
        <ele>77.537382</ele>
        <time>2026-07-07T19:54:16.384Z</time>
      </trkpt>
      <trkpt lat="51.790388" lon="8.430854">
        <ele>77.558325</ele>
        <time>2026-07-07T19:54:19.204Z</time>
      </trkpt>
      <trkpt lat="51.790328" lon="8.431086">
        <ele>77.572448</ele>
        <time>2026-07-07T19:54:22.490Z</time>
      </trkpt>
      <trkpt lat="51.790166" lon="8.431237">
        <ele>77.576416</ele>
        <time>2026-07-07T19:54:26.420Z</time>
      </trkpt>
      <trkpt lat="51.790018" lon="8.431325">
        <ele>77.579763</ele>
        <time>2026-07-07T19:54:29.747Z</time>
      </trkpt>
      <trkpt lat="51.789933" lon="8.431528">
        <ele>77.582981</ele>
        <time>2026-07-07T19:54:32.910Z</time>
      </trkpt>
      <trkpt lat="51.789555" lon="8.433276">
        <ele>77.607289</ele>
        <time>2026-07-07T19:54:57.043Z</time>
      </trkpt>
      <trkpt lat="51.789519" lon="8.433630">
        <ele>77.619124</ele>
        <time>2026-07-07T19:55:01.783Z</time>
      </trkpt>
      <trkpt lat="51.789518" lon="8.433719">
        <ele>77.623068</ele>
        <time>2026-07-07T19:55:02.959Z</time>
      </trkpt>
      <trkpt lat="51.789574" lon="8.434034">
        <ele>77.637587</ele>
        <time>2026-07-07T19:55:07.297Z</time>
      </trkpt>
      <trkpt lat="51.789941" lon="8.435134">
        <ele>77.692953</ele>
        <time>2026-07-07T19:55:23.688Z</time>
      </trkpt>
      <trkpt lat="51.790039" lon="8.436017">
        <ele>77.732694</ele>
        <time>2026-07-07T19:55:35.463Z</time>
      </trkpt>
      <trkpt lat="51.789999" lon="8.436524">
        <ele>77.717925</ele>
        <time>2026-07-07T19:55:42.181Z</time>
      </trkpt>
      <trkpt lat="51.790037" lon="8.437026">
        <ele>77.692495</ele>
        <time>2026-07-07T19:55:48.834Z</time>
      </trkpt>
      <trkpt lat="51.790681" lon="8.439005">
        <ele>77.609781</ele>
        <time>2026-07-07T19:56:17.710Z</time>
      </trkpt>
      <trkpt lat="51.790637" lon="8.439235">
        <ele>77.628845</ele>
        <time>2026-07-07T19:56:20.758Z</time>
      </trkpt>
      <trkpt lat="51.790459" lon="8.440150">
        <ele>77.704796</ele>
        <time>2026-07-07T19:56:32.813Z</time>
      </trkpt>
      <trkpt lat="51.787622" lon="8.454899">
        <ele>78.937620</ele>
        <time>2026-07-07T19:59:57.255Z</time>
      </trkpt>
      <trkpt lat="51.787342" lon="8.454902">
        <ele>78.975355</ele>
        <time>2026-07-07T20:00:03.131Z</time>
      </trkpt>
      <trkpt lat="51.786076" lon="8.454260">
        <ele>79.038099</ele>
        <time>2026-07-07T20:00:31.121Z</time>
      </trkpt>
      <trkpt lat="51.785732" lon="8.454153">
        <ele>79.052865</ele>
        <time>2026-07-07T20:00:38.648Z</time>
      </trkpt>
      <trkpt lat="51.785370" lon="8.454040">
        <ele>79.078726</ele>
        <time>2026-07-07T20:00:46.548Z</time>
      </trkpt>
      <trkpt lat="51.785324" lon="8.454274">
        <ele>79.094159</ele>
        <time>2026-07-07T20:00:49.751Z</time>
      </trkpt>
      <trkpt lat="51.784484" lon="8.453891">
        <ele>79.182834</ele>
        <time>2026-07-07T20:01:08.311Z</time>
      </trkpt>
      <trkpt lat="51.784269" lon="8.453793">
        <ele>79.205530</ele>
        <time>2026-07-07T20:01:13.030Z</time>
      </trkpt>
      <trkpt lat="51.782442" lon="8.452737">
        <ele>79.439399</ele>
        <time>2026-07-07T20:01:54.376Z</time>
      </trkpt>
      <trkpt lat="51.782309" lon="8.453297">
        <ele>79.504665</ele>
        <time>2026-07-07T20:02:02.289Z</time>
      </trkpt>
      <trkpt lat="51.781827" lon="8.454948">
        <ele>79.802731</ele>
        <time>2026-07-07T20:02:26.471Z</time>
      </trkpt>
      <trkpt lat="51.781235" lon="8.456943">
        <ele>80.253559</ele>
        <time>2026-07-07T20:02:56.321Z</time>
      </trkpt>
      <trkpt lat="51.781048" lon="8.457680">
        <ele>80.436458</ele>
        <time>2026-07-07T20:03:07.086Z</time>
      </trkpt>
      <trkpt lat="51.780800" lon="8.458655">
        <ele>80.638030</ele>
        <time>2026-07-07T20:03:21.250Z</time>
      </trkpt>
      <trkpt lat="51.779659" lon="8.462656">
        <ele>80.821590</ele>
        <time>2026-07-07T20:04:19.221Z</time>
      </trkpt>
      <trkpt lat="51.779338" lon="8.463789">
        <ele>80.730658</ele>
        <time>2026-07-07T20:04:35.215Z</time>
      </trkpt>
      <trkpt lat="51.779102" lon="8.464624">
        <ele>80.339416</ele>
        <time>2026-07-07T20:04:46.671Z</time>
      </trkpt>
      <trkpt lat="51.778933" lon="8.464516">
        <ele>80.214231</ele>
        <time>2026-07-07T20:04:50.272Z</time>
      </trkpt>
      <trkpt lat="51.777730" lon="8.464116">
        <ele>79.453802</ele>
        <time>2026-07-07T20:05:14.242Z</time>
      </trkpt>
      <trkpt lat="51.777625" lon="8.464142">
        <ele>79.415563</ele>
        <time>2026-07-07T20:05:16.330Z</time>
      </trkpt>
      <trkpt lat="51.777224" lon="8.464008">
        <ele>79.268161</ele>
        <time>2026-07-07T20:05:24.463Z</time>
      </trkpt>
      <trkpt lat="51.777133" lon="8.463931">
        <ele>79.231186</ele>
        <time>2026-07-07T20:05:26.559Z</time>
      </trkpt>
      <trkpt lat="51.776376" lon="8.463660">
        <ele>78.952081</ele>
        <time>2026-07-07T20:05:42.730Z</time>
      </trkpt>
      <trkpt lat="51.776281" lon="8.463692">
        <ele>78.917148</ele>
        <time>2026-07-07T20:05:44.812Z</time>
      </trkpt>
      <trkpt lat="51.774442" lon="8.463076">
        <ele>79.312775</ele>
        <time>2026-07-07T20:06:25.484Z</time>
      </trkpt>
      <trkpt lat="51.774162" lon="8.462982">
        <ele>79.304885</ele>
        <time>2026-07-07T20:06:31.488Z</time>
      </trkpt>
      <trkpt lat="51.774074" lon="8.462895">
        <ele>79.302039</ele>
        <time>2026-07-07T20:06:33.631Z</time>
      </trkpt>
      <trkpt lat="51.773408" lon="8.462661">
        <ele>79.283236</ele>
        <time>2026-07-07T20:06:47.757Z</time>
      </trkpt>
      <trkpt lat="51.773298" lon="8.462566">
        <ele>79.279795</ele>
        <time>2026-07-07T20:06:50.305Z</time>
      </trkpt>
      <trkpt lat="51.773230" lon="8.462502">
        <ele>79.277624</ele>
        <time>2026-07-07T20:06:51.926Z</time>
      </trkpt>
      <trkpt lat="51.772023" lon="8.462119">
        <ele>79.508259</ele>
        <time>2026-07-07T20:07:18.054Z</time>
      </trkpt>
      <trkpt lat="51.771962" lon="8.462161">
        <ele>79.530218</ele>
        <time>2026-07-07T20:07:19.501Z</time>
      </trkpt>
      <trkpt lat="51.771929" lon="8.462151">
        <ele>79.541338</ele>
        <time>2026-07-07T20:07:20.258Z</time>
      </trkpt>
      <trkpt lat="51.771802" lon="8.462107">
        <ele>79.584353</ele>
        <time>2026-07-07T20:07:23.118Z</time>
      </trkpt>
      <trkpt lat="51.771764" lon="8.462109">
        <ele>79.596945</ele>
        <time>2026-07-07T20:07:23.947Z</time>
      </trkpt>
      <trkpt lat="51.771690" lon="8.462124">
        <ele>79.621644</ele>
        <time>2026-07-07T20:07:25.586Z</time>
      </trkpt>
      <trkpt lat="51.770985" lon="8.461972">
        <ele>79.857195</ele>
        <time>2026-07-07T20:07:41.196Z</time>
      </trkpt>
      <trkpt lat="51.770429" lon="8.462110">
        <ele>80.026854</ele>
        <time>2026-07-07T20:07:53.492Z</time>
      </trkpt>
      <trkpt lat="51.769992" lon="8.462365">
        <ele>80.166796</ele>
        <time>2026-07-07T20:08:03.613Z</time>
      </trkpt>
      <trkpt lat="51.769652" lon="8.462684">
        <ele>80.285213</ele>
        <time>2026-07-07T20:08:12.398Z</time>
      </trkpt>
      <trkpt lat="51.769450" lon="8.462955">
        <ele>80.364291</ele>
        <time>2026-07-07T20:08:18.208Z</time>
      </trkpt>
      <trkpt lat="51.769190" lon="8.463435">
        <ele>80.364266</ele>
        <time>2026-07-07T20:08:26.928Z</time>
      </trkpt>
      <trkpt lat="51.768932" lon="8.464035">
        <ele>80.302293</ele>
        <time>2026-07-07T20:08:36.794Z</time>
      </trkpt>
      <trkpt lat="51.768792" lon="8.464488">
        <ele>80.259344</ele>
        <time>2026-07-07T20:08:43.478Z</time>
      </trkpt>
      <trkpt lat="51.768680" lon="8.464854">
        <ele>80.224711</ele>
        <time>2026-07-07T20:08:48.862Z</time>
      </trkpt>
      <trkpt lat="51.768358" lon="8.465686">
        <ele>80.155211</ele>
        <time>2026-07-07T20:09:01.949Z</time>
      </trkpt>
      <trkpt lat="51.768270" lon="8.465883">
        <ele>80.155648</ele>
        <time>2026-07-07T20:09:05.223Z</time>
      </trkpt>
      <trkpt lat="51.768034" lon="8.466274">
        <ele>80.156633</ele>
        <time>2026-07-07T20:09:12.614Z</time>
      </trkpt>
      <trkpt lat="51.768079" lon="8.466342">
        <ele>80.156812</ele>
        <time>2026-07-07T20:09:14.317Z</time>
      </trkpt>
      <trkpt lat="51.767836" lon="8.466709">
        <ele>80.157781</ele>
        <time>2026-07-07T20:09:21.393Z</time>
      </trkpt>
      <trkpt lat="51.767953" lon="8.467020">
        <ele>80.158437</ele>
        <time>2026-07-07T20:09:26.240Z</time>
      </trkpt>
      <trkpt lat="51.767981" lon="8.467198">
        <ele>80.158768</ele>
        <time>2026-07-07T20:09:28.708Z</time>
      </trkpt>
      <trkpt lat="51.767981" lon="8.467378">
        <ele>80.159092</ele>
        <time>2026-07-07T20:09:31.117Z</time>
      </trkpt>
      <trkpt lat="51.766624" lon="8.471831">
        <ele>80.135875</ele>
        <time>2026-07-07T20:10:35.427Z</time>
      </trkpt>
      <trkpt lat="51.766489" lon="8.472182">
        <ele>80.157601</ele>
        <time>2026-07-07T20:10:40.861Z</time>
      </trkpt>
      <trkpt lat="51.764946" lon="8.474648">
        <ele>80.740073</ele>
        <time>2026-07-07T20:11:27.839Z</time>
      </trkpt>
      <trkpt lat="51.764848" lon="8.474880">
        <ele>80.799991</ele>
        <time>2026-07-07T20:11:31.621Z</time>
      </trkpt>
      <trkpt lat="51.764808" lon="8.475225">
        <ele>80.886958</ele>
        <time>2026-07-07T20:11:36.351Z</time>
      </trkpt>
      <trkpt lat="51.764902" lon="8.476143">
        <ele>81.141040</ele>
        <time>2026-07-07T20:11:48.896Z</time>
      </trkpt>
      <trkpt lat="51.765052" lon="8.477659">
        <ele>81.560264</ele>
        <time>2026-07-07T20:12:09.623Z</time>
      </trkpt>
      <trkpt lat="51.764955" lon="8.479194">
        <ele>82.107823</ele>
        <time>2026-07-07T20:12:30.651Z</time>
      </trkpt>
      <trkpt lat="51.764885" lon="8.479662">
        <ele>82.285872</ele>
        <time>2026-07-07T20:12:37.291Z</time>
      </trkpt>
      <trkpt lat="51.764641" lon="8.480734">
        <ele>82.699656</ele>
        <time>2026-07-07T20:12:52.939Z</time>
      </trkpt>
      <trkpt lat="51.764651" lon="8.481119">
        <ele>82.693544</ele>
        <time>2026-07-07T20:12:58.165Z</time>
      </trkpt>
      <trkpt lat="51.764646" lon="8.481933">
        <ele>82.680632</ele>
        <time>2026-07-07T20:13:09.003Z</time>
      </trkpt>
      <trkpt lat="51.764572" lon="8.482806">
        <ele>82.666656</ele>
        <time>2026-07-07T20:13:20.253Z</time>
      </trkpt>
      <trkpt lat="51.764632" lon="8.484428">
        <ele>82.615898</ele>
        <time>2026-07-07T20:13:40.515Z</time>
      </trkpt>
      <trkpt lat="51.764662" lon="8.485592">
        <ele>82.561989</ele>
        <time>2026-07-07T20:13:55.555Z</time>
      </trkpt>
      <trkpt lat="51.764613" lon="8.486565">
        <ele>82.531290</ele>
        <time>2026-07-07T20:14:08.636Z</time>
      </trkpt>
      <trkpt lat="51.764755" lon="8.487716">
        <ele>82.777625</ele>
        <time>2026-07-07T20:14:24.543Z</time>
      </trkpt>
      <trkpt lat="51.764855" lon="8.489034">
        <ele>83.056327</ele>
        <time>2026-07-07T20:14:42.332Z</time>
      </trkpt>
      <trkpt lat="51.765011" lon="8.489898">
        <ele>83.239938</ele>
        <time>2026-07-07T20:14:54.297Z</time>
      </trkpt>
      <trkpt lat="51.764648" lon="8.494927">
        <ele>84.298934</ele>
        <time>2026-07-07T20:16:02.249Z</time>
      </trkpt>
      <trkpt lat="51.764610" lon="8.495154">
        <ele>84.361914</ele>
        <time>2026-07-07T20:16:05.413Z</time>
      </trkpt>
      <trkpt lat="51.764422" lon="8.495836">
        <ele>84.761942</ele>
        <time>2026-07-07T20:16:15.493Z</time>
      </trkpt>
      <trkpt lat="51.764288" lon="8.496324">
        <ele>85.047996</ele>
        <time>2026-07-07T20:16:22.759Z</time>
      </trkpt>
      <trkpt lat="51.764213" lon="8.497032">
        <ele>85.432865</ele>
        <time>2026-07-07T20:16:32.633Z</time>
      </trkpt>
      <trkpt lat="51.764187" lon="8.498553">
        <ele>86.793010</ele>
        <time>2026-07-07T20:16:54.193Z</time>
      </trkpt>
      <trkpt lat="51.761655" lon="8.499182">
        <ele>92.484528</ele>
        <time>2026-07-07T20:17:56.745Z</time>
      </trkpt>
      <trkpt lat="51.760423" lon="8.499473">
        <ele>94.803365</ele>
        <time>2026-07-07T20:18:26.434Z</time>
      </trkpt>
      <trkpt lat="51.760129" lon="8.499542">
        <ele>95.244662</ele>
        <time>2026-07-07T20:18:33.409Z</time>
      </trkpt>
      <trkpt lat="51.758978" lon="8.499360">
        <ele>96.912604</ele>
        <time>2026-07-07T20:19:00.549Z</time>
      </trkpt>
      <trkpt lat="51.758849" lon="8.499312">
        <ele>97.084557</ele>
        <time>2026-07-07T20:19:03.679Z</time>
      </trkpt>
      <trkpt lat="51.757745" lon="8.499039">
        <ele>98.535306</ele>
        <time>2026-07-07T20:19:29.937Z</time>
      </trkpt>
      <trkpt lat="51.757256" lon="8.498711">
        <ele>99.113625</ele>
        <time>2026-07-07T20:19:42.382Z</time>
      </trkpt>
      <trkpt lat="51.754648" lon="8.497506">
        <ele>100.506287</ele>
        <time>2026-07-07T20:20:44.744Z</time>
      </trkpt>
      <trkpt lat="51.752678" lon="8.498262">
        <ele>98.181222</ele>
        <time>2026-07-07T20:21:23.545Z</time>
      </trkpt>
      <trkpt lat="51.752568" lon="8.498570">
        <ele>97.807024</ele>
        <time>2026-07-07T20:21:27.379Z</time>
      </trkpt>
      <trkpt lat="51.752405" lon="8.498838">
        <ele>97.319031</ele>
        <time>2026-07-07T20:21:31.376Z</time>
      </trkpt>
      <trkpt lat="51.752224" lon="8.499043">
        <ele>96.456794</ele>
        <time>2026-07-07T20:21:35.087Z</time>
      </trkpt>
      <trkpt lat="51.751238" lon="8.499739">
        <ele>92.259718</ele>
        <time>2026-07-07T20:21:52.580Z</time>
      </trkpt>
      <trkpt lat="51.750763" lon="8.500074">
        <ele>90.347515</ele>
        <time>2026-07-07T20:22:00.968Z</time>
      </trkpt>
      <trkpt lat="51.749989" lon="8.500174">
        <ele>88.763098</ele>
        <time>2026-07-07T20:22:14.127Z</time>
      </trkpt>
      <trkpt lat="51.749639" lon="8.500369">
        <ele>88.007620</ele>
        <time>2026-07-07T20:22:20.968Z</time>
      </trkpt>
      <trkpt lat="51.750441" lon="8.502892">
        <ele>87.285365</ele>
        <time>2026-07-07T20:22:58.650Z</time>
      </trkpt>
      <trkpt lat="51.750585" lon="8.503272">
        <ele>87.401125</ele>
        <time>2026-07-07T20:23:04.866Z</time>
      </trkpt>
      <trkpt lat="51.751293" lon="8.504227">
        <ele>87.767849</ele>
        <time>2026-07-07T20:23:25.386Z</time>
      </trkpt>
      <trkpt lat="51.751714" lon="8.505651">
        <ele>88.142427</ele>
        <time>2026-07-07T20:23:46.680Z</time>
      </trkpt>
      <trkpt lat="51.752522" lon="8.508621">
        <ele>87.675257</ele>
        <time>2026-07-07T20:24:28.000Z</time>
      </trkpt>
      <trkpt lat="51.752545" lon="8.508689">
        <ele>87.659716</ele>
        <time>2026-07-07T20:24:28.960Z</time>
      </trkpt>
      <trkpt lat="51.752423" lon="8.508747">
        <ele>87.615306</ele>
        <time>2026-07-07T20:24:31.415Z</time>
      </trkpt>
      <trkpt lat="51.752001" lon="8.508889">
        <ele>87.464629</ele>
        <time>2026-07-07T20:24:39.845Z</time>
      </trkpt>
      <trkpt lat="51.751924" lon="8.508968">
        <ele>87.432743</ele>
        <time>2026-07-07T20:24:41.649Z</time>
      </trkpt>
      <trkpt lat="51.751543" lon="8.509102">
        <ele>87.296444</ele>
        <time>2026-07-07T20:24:49.307Z</time>
      </trkpt>
      <trkpt lat="51.750575" lon="8.509371">
        <ele>87.071995</ele>
        <time>2026-07-07T20:25:10.231Z</time>
      </trkpt>
      <trkpt lat="51.749353" lon="8.509800">
        <ele>87.306953</ele>
        <time>2026-07-07T20:25:37.658Z</time>
      </trkpt>
      <trkpt lat="51.747600" lon="8.510293">
        <ele>86.865549</ele>
        <time>2026-07-07T20:26:13.682Z</time>
      </trkpt>
      <trkpt lat="51.747682" lon="8.511315">
        <ele>86.780384</ele>
        <time>2026-07-07T20:26:26.685Z</time>
      </trkpt>
      <trkpt lat="51.747809" lon="8.512882">
        <ele>86.896625</ele>
        <time>2026-07-07T20:26:47.493Z</time>
      </trkpt>
      <trkpt lat="51.747923" lon="8.514125">
        <ele>87.066431</ele>
        <time>2026-07-07T20:27:04.527Z</time>
      </trkpt>
      <trkpt lat="51.747934" lon="8.514159">
        <ele>87.076615</ele>
        <time>2026-07-07T20:27:05.047Z</time>
      </trkpt>
      <trkpt lat="51.748013" lon="8.514401">
        <ele>87.149241</ele>
        <time>2026-07-07T20:27:08.787Z</time>
      </trkpt>
      <trkpt lat="51.748112" lon="8.514700">
        <ele>87.239252</ele>
        <time>2026-07-07T20:27:13.418Z</time>
      </trkpt>
      <trkpt lat="51.748183" lon="8.514919">
        <ele>87.304877</ele>
        <time>2026-07-07T20:27:16.804Z</time>
      </trkpt>
      <trkpt lat="51.748839" lon="8.516916">
        <ele>87.733529</ele>
        <time>2026-07-07T20:27:47.297Z</time>
      </trkpt>
      <trkpt lat="51.748928" lon="8.517457">
        <ele>87.736018</ele>
        <time>2026-07-07T20:27:54.526Z</time>
      </trkpt>
      <trkpt lat="51.748770" lon="8.517550">
        <ele>87.737226</ele>
        <time>2026-07-07T20:27:57.982Z</time>
      </trkpt>
      <trkpt lat="51.747810" lon="8.518112">
        <ele>87.777678</ele>
        <time>2026-07-07T20:28:18.983Z</time>
      </trkpt>
      <trkpt lat="51.748474" lon="8.523154">
        <ele>88.579439</ele>
        <time>2026-07-07T20:29:28.194Z</time>
      </trkpt>
      <trkpt lat="51.748632" lon="8.524351">
        <ele>88.580293</ele>
        <time>2026-07-07T20:29:44.187Z</time>
      </trkpt>
      <trkpt lat="51.748868" lon="8.526153">
        <ele>88.421882</ele>
        <time>2026-07-07T20:30:07.725Z</time>
      </trkpt>
      <trkpt lat="51.750122" lon="8.530738">
        <ele>88.140420</ele>
        <time>2026-07-07T20:31:12.346Z</time>
      </trkpt>
      <trkpt lat="51.750431" lon="8.531866">
        <ele>88.172312</ele>
        <time>2026-07-07T20:31:28.659Z</time>
      </trkpt>
      <trkpt lat="51.751252" lon="8.534846">
        <ele>88.778168</ele>
        <time>2026-07-07T20:32:12.560Z</time>
      </trkpt>
      <trkpt lat="51.752261" lon="8.538515">
        <ele>88.964087</ele>
        <time>2026-07-07T20:33:05.134Z</time>
      </trkpt>
      <trkpt lat="51.753261" lon="8.542152">
        <ele>88.935192</ele>
        <time>2026-07-07T20:33:56.955Z</time>
      </trkpt>
      <trkpt lat="51.751108" lon="8.543014">
        <ele>89.149742</ele>
        <time>2026-07-07T20:34:43.997Z</time>
      </trkpt>
      <trkpt lat="51.752565" lon="8.545347">
        <ele>89.441456</ele>
        <time>2026-07-07T20:35:28.231Z</time>
      </trkpt>
      <trkpt lat="51.752519" lon="8.545410">
        <ele>89.439805</ele>
        <time>2026-07-07T20:35:29.870Z</time>
      </trkpt>
      <trkpt lat="51.752367" lon="8.545169">
        <ele>89.433977</ele>
        <time>2026-07-07T20:35:34.288Z</time>
      </trkpt>
      <trkpt lat="51.752131" lon="8.545504">
        <ele>89.425380</ele>
        <time>2026-07-07T20:35:41.060Z</time>
      </trkpt>
      <trkpt lat="51.752066" lon="8.545596">
        <ele>89.423015</ele>
        <time>2026-07-07T20:35:42.914Z</time>
      </trkpt>
      <trkpt lat="51.751822" lon="8.545943">
        <ele>89.414120</ele>
        <time>2026-07-07T20:35:49.937Z</time>
      </trkpt>
      <trkpt lat="51.751635" lon="8.546208">
        <ele>89.407505</ele>
        <time>2026-07-07T20:35:55.302Z</time>
      </trkpt>
      <trkpt lat="51.751506" lon="8.546395">
        <ele>89.417320</ele>
        <time>2026-07-07T20:35:59.051Z</time>
      </trkpt>
      <trkpt lat="51.750968" lon="8.547186">
        <ele>89.458516</ele>
        <time>2026-07-07T20:36:14.426Z</time>
      </trkpt>
      <trkpt lat="51.750803" lon="8.547271">
        <ele>89.468323</ele>
        <time>2026-07-07T20:36:18.166Z</time>
      </trkpt>
      <trkpt lat="51.749910" lon="8.547351">
        <ele>89.498158</ele>
        <time>2026-07-07T20:36:37.411Z</time>
      </trkpt>
      <trkpt lat="51.748536" lon="8.547474">
        <ele>89.409600</ele>
        <time>2026-07-07T20:37:06.119Z</time>
      </trkpt>
      <trkpt lat="51.748781" lon="8.552504">
        <ele>89.381811</ele>
        <time>2026-07-07T20:38:11.539Z</time>
      </trkpt>
      <trkpt lat="51.748852" lon="8.553971">
        <ele>89.494639</ele>
        <time>2026-07-07T20:38:31.297Z</time>
      </trkpt>
      <trkpt lat="51.748918" lon="8.554183">
        <ele>89.523467</ele>
        <time>2026-07-07T20:38:34.506Z</time>
      </trkpt>
      <trkpt lat="51.748966" lon="8.554257">
        <ele>89.536488</ele>
        <time>2026-07-07T20:38:35.948Z</time>
      </trkpt>
      <trkpt lat="51.748903" lon="8.554469">
        <ele>89.565057</ele>
        <time>2026-07-07T20:38:39.139Z</time>
      </trkpt>
      <trkpt lat="51.748893" lon="8.554587">
        <ele>89.579526</ele>
        <time>2026-07-07T20:38:40.738Z</time>
      </trkpt>
      <trkpt lat="51.749255" lon="8.561822">
        <ele>90.348886</ele>
        <time>2026-07-07T20:40:16.836Z</time>
      </trkpt>
      <trkpt lat="51.749330" lon="8.562418">
        <ele>90.381583</ele>
        <time>2026-07-07T20:40:24.706Z</time>
      </trkpt>
      <trkpt lat="51.749290" lon="8.562395">
        <ele>90.380775</ele>
        <time>2026-07-07T20:40:25.608Z</time>
      </trkpt>
      <trkpt lat="51.749033" lon="8.562363">
        <ele>90.375873</ele>
        <time>2026-07-07T20:40:30.989Z</time>
      </trkpt>
      <trkpt lat="51.748924" lon="8.562419">
        <ele>90.373697</ele>
        <time>2026-07-07T20:40:33.390Z</time>
      </trkpt>
      <trkpt lat="51.748940" lon="8.562522">
        <ele>90.372447</ele>
        <time>2026-07-07T20:40:34.762Z</time>
      </trkpt>
      <trkpt lat="51.749023" lon="8.562916">
        <ele>90.367546</ele>
        <time>2026-07-07T20:40:40.155Z</time>
      </trkpt>
      <trkpt lat="51.749370" lon="8.564065">
        <ele>90.352492</ele>
        <time>2026-07-07T20:40:56.784Z</time>
      </trkpt>
      <trkpt lat="51.752253" lon="8.571095">
        <ele>90.858615</ele>
        <time>2026-07-07T20:42:47.800Z</time>
      </trkpt>
      <trkpt lat="51.753905" lon="8.575212">
        <ele>91.481577</ele>
        <time>2026-07-07T20:43:53.185Z</time>
      </trkpt>
      <trkpt lat="51.753393" lon="8.575801">
        <ele>91.563311</ele>
        <time>2026-07-07T20:44:06.581Z</time>
      </trkpt>
      <trkpt lat="51.752228" lon="8.577233">
        <ele>91.524287</ele>
        <time>2026-07-07T20:44:37.425Z</time>
      </trkpt>
      <trkpt lat="51.752016" lon="8.577410">
        <ele>91.508997</ele>
        <time>2026-07-07T20:44:42.387Z</time>
      </trkpt>
      <trkpt lat="51.751935" lon="8.577584">
        <ele>91.500361</ele>
        <time>2026-07-07T20:44:45.180Z</time>
      </trkpt>
      <trkpt lat="51.751200" lon="8.578502">
        <ele>91.365172</ele>
        <time>2026-07-07T20:45:04.216Z</time>
      </trkpt>
      <trkpt lat="51.750719" lon="8.579083">
        <ele>91.260409</ele>
        <time>2026-07-07T20:45:16.670Z</time>
      </trkpt>
      <trkpt lat="51.749487" lon="8.580584">
        <ele>90.858948</ele>
        <time>2026-07-07T20:45:49.034Z</time>
      </trkpt>
      <trkpt lat="51.749424" lon="8.580656">
        <ele>90.835581</ele>
        <time>2026-07-07T20:45:50.612Z</time>
      </trkpt>
      <trkpt lat="51.748523" lon="8.581742">
        <ele>90.490919</ele>
        <time>2026-07-07T20:46:13.031Z</time>
      </trkpt>
      <trkpt lat="51.747294" lon="8.582980">
        <ele>90.091225</ele>
        <time>2026-07-07T20:46:42.713Z</time>
      </trkpt>
      <trkpt lat="51.747067" lon="8.583211">
        <ele>90.178605</ele>
        <time>2026-07-07T20:46:48.592Z</time>
      </trkpt>
      <trkpt lat="51.746939" lon="8.583351">
        <ele>90.228952</ele>
        <time>2026-07-07T20:46:51.985Z</time>
      </trkpt>
      <trkpt lat="51.746687" lon="8.583696">
        <ele>90.336540</ele>
        <time>2026-07-07T20:46:59.260Z</time>
      </trkpt>
      <trkpt lat="51.746557" lon="8.583930">
        <ele>90.399936</ele>
        <time>2026-07-07T20:47:03.544Z</time>
      </trkpt>
      <trkpt lat="51.746356" lon="8.584490">
        <ele>90.530459</ele>
        <time>2026-07-07T20:47:12.348Z</time>
      </trkpt>
      <trkpt lat="51.746264" lon="8.584907">
        <ele>90.619724</ele>
        <time>2026-07-07T20:47:18.293Z</time>
      </trkpt>
      <trkpt lat="51.746329" lon="8.584969">
        <ele>90.644310</ele>
        <time>2026-07-07T20:47:19.943Z</time>
      </trkpt>
      <trkpt lat="51.746209" lon="8.585664">
        <ele>90.641601</ele>
        <time>2026-07-07T20:47:29.466Z</time>
      </trkpt>
      <trkpt lat="51.746167" lon="8.585912">
        <ele>90.638528</ele>
        <time>2026-07-07T20:47:32.804Z</time>
      </trkpt>
      <trkpt lat="51.746072" lon="8.586225">
        <ele>90.634361</ele>
        <time>2026-07-07T20:47:37.251Z</time>
      </trkpt>
      <trkpt lat="51.745851" lon="8.586652">
        <ele>90.627708</ele>
        <time>2026-07-07T20:47:44.330Z</time>
      </trkpt>
      <trkpt lat="51.745441" lon="8.587306">
        <ele>90.616582</ele>
        <time>2026-07-07T20:47:56.318Z</time>
      </trkpt>
      <trkpt lat="51.745319" lon="8.587633">
        <ele>90.645477</ele>
        <time>2026-07-07T20:48:01.368Z</time>
      </trkpt>
      <trkpt lat="51.745283" lon="8.587781">
        <ele>90.663766</ele>
        <time>2026-07-07T20:48:03.481Z</time>
      </trkpt>
      <trkpt lat="51.745243" lon="8.587949">
        <ele>90.684468</ele>
        <time>2026-07-07T20:48:05.891Z</time>
      </trkpt>
      <trkpt lat="51.745163" lon="8.588313">
        <ele>90.728894</ele>
        <time>2026-07-07T20:48:11.064Z</time>
      </trkpt>
      <trkpt lat="51.745059" lon="8.588639">
        <ele>90.771073</ele>
        <time>2026-07-07T20:48:16.031Z</time>
      </trkpt>
      <trkpt lat="51.744799" lon="8.589208">
        <ele>90.852410</ele>
        <time>2026-07-07T20:48:25.624Z</time>
      </trkpt>
      <trkpt lat="51.744670" lon="8.589557">
        <ele>90.899160</ele>
        <time>2026-07-07T20:48:31.045Z</time>
      </trkpt>
      <trkpt lat="51.744507" lon="8.590467">
        <ele>90.773903</ele>
        <time>2026-07-07T20:48:43.249Z</time>
      </trkpt>
      <trkpt lat="51.744468" lon="8.590650">
        <ele>90.707541</ele>
        <time>2026-07-07T20:48:45.673Z</time>
      </trkpt>
      <trkpt lat="51.744369" lon="8.590955">
        <ele>90.589460</ele>
        <time>2026-07-07T20:48:49.956Z</time>
      </trkpt>
      <trkpt lat="51.744216" lon="8.591267">
        <ele>90.452988</ele>
        <time>2026-07-07T20:48:54.856Z</time>
      </trkpt>
      <trkpt lat="51.744012" lon="8.591558">
        <ele>90.302259</ele>
        <time>2026-07-07T20:49:00.191Z</time>
      </trkpt>
      <trkpt lat="51.743777" lon="8.591837">
        <ele>90.140738</ele>
        <time>2026-07-07T20:49:05.811Z</time>
      </trkpt>
      <trkpt lat="51.743755" lon="8.591779">
        <ele>90.117414</ele>
        <time>2026-07-07T20:49:06.669Z</time>
      </trkpt>
      <trkpt lat="51.743580" lon="8.591987">
        <ele>89.997085</ele>
        <time>2026-07-07T20:49:10.902Z</time>
      </trkpt>
      <trkpt lat="51.743331" lon="8.592180">
        <ele>89.909959</ele>
        <time>2026-07-07T20:49:16.448Z</time>
      </trkpt>
      <trkpt lat="51.742887" lon="8.592698">
        <ele>89.789678</ele>
        <time>2026-07-07T20:49:27.812Z</time>
      </trkpt>
      <trkpt lat="51.742368" lon="8.593203">
        <ele>89.656619</ele>
        <time>2026-07-07T20:49:40.450Z</time>
      </trkpt>
      <trkpt lat="51.742019" lon="8.593525">
        <ele>89.568354</ele>
        <time>2026-07-07T20:49:48.890Z</time>
      </trkpt>
      <trkpt lat="51.741848" lon="8.593640">
        <ele>89.595897</ele>
        <time>2026-07-07T20:49:52.790Z</time>
      </trkpt>
      <trkpt lat="51.741674" lon="8.593682">
        <ele>89.643514</ele>
        <time>2026-07-07T20:49:56.500Z</time>
      </trkpt>
      <trkpt lat="51.741271" lon="8.593917">
        <ele>89.759480</ele>
        <time>2026-07-07T20:50:05.609Z</time>
      </trkpt>
      <trkpt lat="51.740830" lon="8.594236">
        <ele>89.890264</ele>
        <time>2026-07-07T20:50:16.006Z</time>
      </trkpt>
      <trkpt lat="51.740342" lon="8.594539">
        <ele>90.031769</ele>
        <time>2026-07-07T20:50:27.518Z</time>
      </trkpt>
      <trkpt lat="51.740233" lon="8.594626">
        <ele>90.051595</ele>
        <time>2026-07-07T20:50:30.188Z</time>
      </trkpt>
      <trkpt lat="51.739819" lon="8.594925">
        <ele>90.092554</ele>
        <time>2026-07-07T20:50:40.220Z</time>
      </trkpt>
      <trkpt lat="51.739691" lon="8.595061">
        <ele>90.106392</ele>
        <time>2026-07-07T20:50:43.593Z</time>
      </trkpt>
      <trkpt lat="51.739119" lon="8.595827">
        <ele>90.173503</ele>
        <time>2026-07-07T20:50:59.256Z</time>
      </trkpt>
      <trkpt lat="51.738861" lon="8.596329">
        <ele>90.196459</ele>
        <time>2026-07-07T20:51:07.452Z</time>
      </trkpt>
      <trkpt lat="51.738696" lon="8.596789">
        <ele>90.065387</ele>
        <time>2026-07-07T20:51:14.071Z</time>
      </trkpt>
      <trkpt lat="51.738510" lon="8.597449">
        <ele>89.886597</ele>
        <time>2026-07-07T20:51:23.040Z</time>
      </trkpt>
      <trkpt lat="51.738259" lon="8.598710">
        <ele>89.560014</ele>
        <time>2026-07-07T20:51:39.644Z</time>
      </trkpt>
      <trkpt lat="51.738194" lon="8.598930">
        <ele>89.499913</ele>
        <time>2026-07-07T20:51:42.791Z</time>
      </trkpt>
      <trkpt lat="51.738034" lon="8.599239">
        <ele>89.522063</ele>
        <time>2026-07-07T20:51:48.030Z</time>
      </trkpt>
      <trkpt lat="51.737998" lon="8.599322">
        <ele>89.530524</ele>
        <time>2026-07-07T20:51:49.351Z</time>
      </trkpt>
      <trkpt lat="51.737916" lon="8.600157">
        <ele>89.601117</ele>
        <time>2026-07-07T20:52:00.581Z</time>
      </trkpt>
      <trkpt lat="51.737756" lon="8.600873">
        <ele>89.664676</ele>
        <time>2026-07-07T20:52:10.769Z</time>
      </trkpt>
      <trkpt lat="51.737569" lon="8.601523">
        <ele>89.724522</ele>
        <time>2026-07-07T20:52:20.385Z</time>
      </trkpt>
      <trkpt lat="51.737611" lon="8.601552">
        <ele>89.730681</ele>
        <time>2026-07-07T20:52:21.372Z</time>
      </trkpt>
      <trkpt lat="51.737666" lon="8.601450">
        <ele>89.741813</ele>
        <time>2026-07-07T20:52:23.169Z</time>
      </trkpt>
      <trkpt lat="51.737806" lon="8.601565">
        <ele>89.762571</ele>
        <time>2026-07-07T20:52:26.527Z</time>
      </trkpt>
      <trkpt lat="51.737999" lon="8.603573">
        <ele>89.928874</ele>
        <time>2026-07-07T20:52:53.184Z</time>
      </trkpt>
      <trkpt lat="51.738357" lon="8.605125">
        <ele>90.015232</ele>
        <time>2026-07-07T20:53:15.094Z</time>
      </trkpt>
      <trkpt lat="51.738673" lon="8.606465">
        <ele>90.070420</ele>
        <time>2026-07-07T20:53:33.955Z</time>
      </trkpt>
      <trkpt lat="51.738814" lon="8.607391">
        <ele>90.037684</ele>
        <time>2026-07-07T20:53:46.246Z</time>
      </trkpt>
      <trkpt lat="51.738902" lon="8.608083">
        <ele>89.985430</ele>
        <time>2026-07-07T20:53:55.310Z</time>
      </trkpt>
      <trkpt lat="51.738911" lon="8.608154">
        <ele>89.980070</ele>
        <time>2026-07-07T20:53:56.244Z</time>
      </trkpt>
      <trkpt lat="51.739117" lon="8.609744">
        <ele>89.876611</ele>
        <time>2026-07-07T20:54:17.070Z</time>
      </trkpt>
      <trkpt lat="51.739147" lon="8.609805">
        <ele>89.882038</ele>
        <time>2026-07-07T20:54:18.084Z</time>
      </trkpt>
      <trkpt lat="51.740154" lon="8.610162">
        <ele>89.998028</ele>
        <time>2026-07-07T20:54:40.053Z</time>
      </trkpt>
      <trkpt lat="51.739949" lon="8.612068">
        <ele>90.288978</ele>
        <time>2026-07-07T20:55:05.823Z</time>
      </trkpt>
      <trkpt lat="51.739774" lon="8.613932">
        <ele>90.751541</ele>
        <time>2026-07-07T20:55:31.327Z</time>
      </trkpt>
      <trkpt lat="51.739755" lon="8.614444">
        <ele>90.898824</ele>
        <time>2026-07-07T20:55:38.347Z</time>
      </trkpt>
      <trkpt lat="51.739848" lon="8.615804">
        <ele>91.311206</ele>
        <time>2026-07-07T20:55:57.084Z</time>
      </trkpt>
      <trkpt lat="51.739965" lon="8.617161">
        <ele>91.667514</ele>
        <time>2026-07-07T20:56:15.552Z</time>
      </trkpt>
      <trkpt lat="51.741161" lon="8.616378">
        <ele>91.750026</ele>
        <time>2026-07-07T20:56:42.783Z</time>
      </trkpt>
      <trkpt lat="51.741694" lon="8.616029">
        <ele>91.775202</ele>
        <time>2026-07-07T20:56:54.877Z</time>
      </trkpt>
      <trkpt lat="51.741862" lon="8.615919">
        <ele>91.776333</ele>
        <time>2026-07-07T20:56:58.645Z</time>
      </trkpt>
      <trkpt lat="51.741912" lon="8.616053">
        <ele>91.776937</ele>
        <time>2026-07-07T20:57:00.660Z</time>
      </trkpt>
      <trkpt lat="51.742497" lon="8.616978">
        <ele>91.782043</ele>
        <time>2026-07-07T20:57:17.933Z</time>
      </trkpt>
      <trkpt lat="51.742578" lon="8.617153">
        <ele>91.782887</ele>
        <time>2026-07-07T20:57:20.796Z</time>
      </trkpt>
      <trkpt lat="51.742592" lon="8.617232">
        <ele>91.783205</ele>
        <time>2026-07-07T20:57:21.886Z</time>
      </trkpt>
      <trkpt lat="51.742572" lon="8.617453">
        <ele>91.784067</ele>
        <time>2026-07-07T20:57:24.828Z</time>
      </trkpt>
      <trkpt lat="51.742514" lon="8.617612">
        <ele>91.784780</ele>
        <time>2026-07-07T20:57:27.274Z</time>
      </trkpt>
      <trkpt lat="51.742428" lon="8.617847">
        <ele>91.781535</ele>
        <time>2026-07-07T20:57:30.900Z</time>
      </trkpt>
      <trkpt lat="51.742428" lon="8.618040">
        <ele>91.777476</ele>
        <time>2026-07-07T20:57:33.452Z</time>
      </trkpt>
      <trkpt lat="51.742816" lon="8.619122">
        <ele>91.751181</ele>
        <time>2026-07-07T20:57:49.948Z</time>
      </trkpt>
      <trkpt lat="51.742876" lon="8.619339">
        <ele>91.746183</ele>
        <time>2026-07-07T20:57:53.064Z</time>
      </trkpt>
      <trkpt lat="51.742880" lon="8.619693">
        <ele>91.738737</ele>
        <time>2026-07-07T20:57:57.644Z</time>
      </trkpt>
      <trkpt lat="51.742710" lon="8.620496">
        <ele>91.685636</ele>
        <time>2026-07-07T20:58:08.495Z</time>
      </trkpt>
      <trkpt lat="51.743162" lon="8.620407">
        <ele>91.499164</ele>
        <time>2026-07-07T20:58:17.595Z</time>
      </trkpt>
      <trkpt lat="51.743504" lon="8.620346">
        <ele>91.358259</ele>
        <time>2026-07-07T20:58:24.481Z</time>
      </trkpt>
      <trkpt lat="51.743582" lon="8.620332">
        <ele>91.326120</ele>
        <time>2026-07-07T20:58:26.066Z</time>
      </trkpt>
      <trkpt lat="51.744054" lon="8.620573">
        <ele>91.123400</ele>
        <time>2026-07-07T20:58:36.131Z</time>
      </trkpt>
      <trkpt lat="51.744037" lon="8.621579">
        <ele>90.972431</ele>
        <time>2026-07-07T20:58:48.859Z</time>
      </trkpt>
      <trkpt lat="51.744634" lon="8.624554">
        <ele>91.005716</ele>
        <time>2026-07-07T20:59:29.732Z</time>
      </trkpt>
      <trkpt lat="51.745120" lon="8.626944">
        <ele>91.444744</ele>
        <time>2026-07-07T21:00:03.557Z</time>
      </trkpt>
      <trkpt lat="51.745246" lon="8.631036">
        <ele>92.315886</ele>
        <time>2026-07-07T21:00:59.053Z</time>
      </trkpt>
      <trkpt lat="51.745160" lon="8.631038">
        <ele>92.330184</ele>
        <time>2026-07-07T21:01:00.869Z</time>
      </trkpt>
      <trkpt lat="51.745246" lon="8.631036">
        <ele>92.344481</ele>
        <time>2026-07-07T21:01:02.676Z</time>
      </trkpt>
      <trkpt lat="51.747294" lon="8.630984">
        <ele>92.419199</ele>
        <time>2026-07-07T21:01:44.999Z</time>
      </trkpt>
      <trkpt lat="51.747299" lon="8.631108">
        <ele>92.416816</ele>
        <time>2026-07-07T21:01:46.660Z</time>
      </trkpt>
      <trkpt lat="51.747304" lon="8.631276">
        <ele>92.413590</ele>
        <time>2026-07-07T21:01:48.893Z</time>
      </trkpt>
      <trkpt lat="51.747066" lon="8.634093">
        <ele>92.939774</ele>
        <time>2026-07-07T21:02:27.480Z</time>
      </trkpt>
      <trkpt lat="51.746968" lon="8.635299">
        <ele>93.038857</ele>
        <time>2026-07-07T21:02:43.345Z</time>
      </trkpt>
      <trkpt lat="51.746944" lon="8.635593">
        <ele>93.034109</ele>
        <time>2026-07-07T21:02:47.232Z</time>
      </trkpt>
      <trkpt lat="51.746965" lon="8.636465">
        <ele>93.020139</ele>
        <time>2026-07-07T21:02:58.612Z</time>
      </trkpt>
      <trkpt lat="51.747066" lon="8.636962">
        <ele>93.011764</ele>
        <time>2026-07-07T21:03:05.322Z</time>
      </trkpt>
      <trkpt lat="51.747371" lon="8.637980">
        <ele>93.054284</ele>
        <time>2026-07-07T21:03:19.909Z</time>
      </trkpt>
      <trkpt lat="51.747403" lon="8.638108">
        <ele>93.065222</ele>
        <time>2026-07-07T21:03:21.742Z</time>
      </trkpt>
      <trkpt lat="51.747438" lon="8.638482">
        <ele>93.095193</ele>
        <time>2026-07-07T21:03:26.809Z</time>
      </trkpt>
      <trkpt lat="51.747597" lon="8.640274">
        <ele>93.246888</ele>
        <time>2026-07-07T21:03:50.749Z</time>
      </trkpt>
      <trkpt lat="51.747624" lon="8.640552">
        <ele>93.309237</ele>
        <time>2026-07-07T21:03:54.515Z</time>
      </trkpt>
      <trkpt lat="51.747634" lon="8.640656">
        <ele>93.332556</ele>
        <time>2026-07-07T21:03:55.920Z</time>
      </trkpt>
      <trkpt lat="51.747645" lon="8.640762">
        <ele>93.356370</ele>
        <time>2026-07-07T21:03:57.369Z</time>
      </trkpt>
      <trkpt lat="51.748006" lon="8.644793">
        <ele>94.254744</ele>
        <time>2026-07-07T21:04:52.290Z</time>
      </trkpt>
      <trkpt lat="51.748061" lon="8.645425">
        <ele>94.394645</ele>
        <time>2026-07-07T21:05:00.769Z</time>
      </trkpt>
      <trkpt lat="51.748149" lon="8.646674">
        <ele>94.814097</ele>
        <time>2026-07-07T21:05:17.588Z</time>
      </trkpt>
      <trkpt lat="51.748096" lon="8.647545">
        <ele>95.183312</ele>
        <time>2026-07-07T21:05:29.563Z</time>
      </trkpt>
      <trkpt lat="51.748125" lon="8.648116">
        <ele>95.425005</ele>
        <time>2026-07-07T21:05:37.457Z</time>
      </trkpt>
      <trkpt lat="51.748333" lon="8.648149">
        <ele>95.567417</ele>
        <time>2026-07-07T21:05:42.113Z</time>
      </trkpt>
      <trkpt lat="51.748547" lon="8.648308">
        <ele>95.727923</ele>
        <time>2026-07-07T21:05:47.415Z</time>
      </trkpt>
      <trkpt lat="51.749360" lon="8.649144">
        <ele>96.951911</ele>
        <time>2026-07-07T21:06:09.356Z</time>
      </trkpt>
      <trkpt lat="51.749466" lon="8.649354">
        <ele>97.166820</ele>
        <time>2026-07-07T21:06:13.184Z</time>
      </trkpt>
      <trkpt lat="51.749478" lon="8.649672">
        <ele>97.419515</ele>
        <time>2026-07-07T21:06:17.715Z</time>
      </trkpt>
      <trkpt lat="51.749450" lon="8.651305">
        <ele>98.378637</ele>
        <time>2026-07-07T21:06:40.845Z</time>
      </trkpt>
      <trkpt lat="51.749451" lon="8.651402">
        <ele>98.416970</ele>
        <time>2026-07-07T21:06:42.201Z</time>
      </trkpt>
      <trkpt lat="51.749829" lon="8.656060">
        <ele>99.418697</ele>
        <time>2026-07-07T21:07:44.886Z</time>
      </trkpt>
      <trkpt lat="51.749841" lon="8.656239">
        <ele>99.430620</ele>
        <time>2026-07-07T21:07:47.155Z</time>
      </trkpt>
      <trkpt lat="51.749906" lon="8.656902">
        <ele>99.288314</ele>
        <time>2026-07-07T21:07:55.518Z</time>
      </trkpt>
      <trkpt lat="51.749994" lon="8.657487">
        <ele>99.160686</ele>
        <time>2026-07-07T21:08:02.952Z</time>
      </trkpt>
      <trkpt lat="51.750018" lon="8.657582">
        <ele>99.138934</ele>
        <time>2026-07-07T21:08:04.209Z</time>
      </trkpt>
      <trkpt lat="51.750215" lon="8.658298">
        <ele>98.972829</ele>
        <time>2026-07-07T21:08:13.999Z</time>
      </trkpt>
      <trkpt lat="51.750444" lon="8.659092">
        <ele>98.817150</ele>
        <time>2026-07-07T21:08:25.249Z</time>
      </trkpt>
      <trkpt lat="51.750870" lon="8.661031">
        <ele>98.821664</ele>
        <time>2026-07-07T21:08:52.531Z</time>
      </trkpt>
      <trkpt lat="51.750894" lon="8.661148">
        <ele>98.821935</ele>
        <time>2026-07-07T21:08:54.165Z</time>
      </trkpt>
      <trkpt lat="51.750982" lon="8.661567">
        <ele>98.822905</ele>
        <time>2026-07-07T21:08:59.939Z</time>
      </trkpt>
      <trkpt lat="51.751016" lon="8.661732">
        <ele>98.808237</ele>
        <time>2026-07-07T21:09:02.174Z</time>
      </trkpt>
      <trkpt lat="51.751095" lon="8.661938">
        <ele>98.694435</ele>
        <time>2026-07-07T21:09:05.225Z</time>
      </trkpt>
      <trkpt lat="51.751199" lon="8.662070">
        <ele>98.594099</ele>
        <time>2026-07-07T21:09:07.891Z</time>
      </trkpt>
      <trkpt lat="51.751679" lon="8.662190">
        <ele>98.225636</ele>
        <time>2026-07-07T21:09:17.429Z</time>
      </trkpt>
      <trkpt lat="51.751963" lon="8.662244">
        <ele>98.008706</ele>
        <time>2026-07-07T21:09:22.989Z</time>
      </trkpt>
      <trkpt lat="51.752269" lon="8.662285">
        <ele>97.775777</ele>
        <time>2026-07-07T21:09:28.955Z</time>
      </trkpt>
      <trkpt lat="51.752357" lon="8.662331">
        <ele>97.705612</ele>
        <time>2026-07-07T21:09:30.731Z</time>
      </trkpt>
      <trkpt lat="51.752477" lon="8.662430">
        <ele>97.603395</ele>
        <time>2026-07-07T21:09:33.350Z</time>
      </trkpt>
      <trkpt lat="51.752596" lon="8.662523">
        <ele>97.503111</ele>
        <time>2026-07-07T21:09:35.908Z</time>
      </trkpt>
      <trkpt lat="51.753008" lon="8.662820">
        <ele>97.162347</ele>
        <time>2026-07-07T21:09:44.651Z</time>
      </trkpt>
      <trkpt lat="51.753196" lon="8.662847">
        <ele>97.019882</ele>
        <time>2026-07-07T21:09:48.353Z</time>
      </trkpt>
      <trkpt lat="51.753477" lon="8.662707">
        <ele>96.797921</ele>
        <time>2026-07-07T21:09:54.209Z</time>
      </trkpt>
      <trkpt lat="51.754478" lon="8.662209">
        <ele>96.062467</ele>
        <time>2026-07-07T21:10:15.017Z</time>
      </trkpt>
      <trkpt lat="51.754529" lon="8.662155">
        <ele>96.043495</ele>
        <time>2026-07-07T21:10:16.237Z</time>
      </trkpt>
      <trkpt lat="51.754404" lon="8.661358">
        <ele>95.885142</ele>
        <time>2026-07-07T21:10:26.545Z</time>
      </trkpt>
      <trkpt lat="51.754373" lon="8.661190">
        <ele>95.851378</ele>
        <time>2026-07-07T21:10:28.785Z</time>
      </trkpt>
      <trkpt lat="51.754216" lon="8.660869">
        <ele>95.772585</ele>
        <time>2026-07-07T21:10:33.994Z</time>
      </trkpt>
      <trkpt lat="51.754226" lon="8.660783">
        <ele>95.755732</ele>
        <time>2026-07-07T21:10:35.114Z</time>
      </trkpt>
      <trkpt lat="51.754321" lon="8.660611">
        <ele>95.711335</ele>
        <time>2026-07-07T21:10:38.079Z</time>
      </trkpt>
      <trkpt lat="51.754615" lon="8.661148">
        <ele>95.573261</ele>
        <time>2026-07-07T21:10:47.241Z</time>
      </trkpt>
      <trkpt lat="51.755089" lon="8.661804">
        <ele>95.570993</ele>
        <time>2026-07-07T21:11:00.458Z</time>
      </trkpt>
      <trkpt lat="51.755181" lon="8.661831">
        <ele>95.576272</ele>
        <time>2026-07-07T21:11:02.451Z</time>
      </trkpt>
      <trkpt lat="51.755233" lon="8.661804">
        <ele>95.579355</ele>
        <time>2026-07-07T21:11:03.642Z</time>
      </trkpt>
      <trkpt lat="51.755403" lon="8.661598">
        <ele>95.591353</ele>
        <time>2026-07-07T21:11:08.215Z</time>
      </trkpt>
      <trkpt lat="51.755461" lon="8.661599">
        <ele>95.594628</ele>
        <time>2026-07-07T21:11:09.476Z</time>
      </trkpt>
      <trkpt lat="51.755477" lon="8.661646">
        <ele>95.596502</ele>
        <time>2026-07-07T21:11:10.196Z</time>
      </trkpt>
      <trkpt lat="51.755535" lon="8.661941">
        <ele>95.607319</ele>
        <time>2026-07-07T21:11:15.508Z</time>
      </trkpt>
      <trkpt lat="51.755556" lon="8.662089">
        <ele>95.612626</ele>
        <time>2026-07-07T21:11:17.508Z</time>
      </trkpt>
      <trkpt lat="51.755542" lon="8.662171">
        <ele>95.615598</ele>
        <time>2026-07-07T21:11:18.612Z</time>
      </trkpt>
      <trkpt lat="51.755392" lon="8.662462">
        <ele>95.628832</ele>
        <time>2026-07-07T21:11:23.563Z</time>
      </trkpt>
      <trkpt lat="51.755359" lon="8.662634">
        <ele>95.635125</ele>
        <time>2026-07-07T21:11:25.876Z</time>
      </trkpt>
      <trkpt lat="51.755202" lon="8.662780">
        <ele>95.643501</ele>
        <time>2026-07-07T21:11:29.659Z</time>
      </trkpt>
      <trkpt lat="51.755078" lon="8.662976">
        <ele>95.645386</ele>
        <time>2026-07-07T21:11:33.327Z</time>
      </trkpt>
      <trkpt lat="51.754759" lon="8.663546">
        <ele>95.650553</ele>
        <time>2026-07-07T21:11:43.452Z</time>
      </trkpt>
      <trkpt lat="51.754553" lon="8.664003">
        <ele>95.654355</ele>
        <time>2026-07-07T21:11:50.736Z</time>
      </trkpt>
      <trkpt lat="51.754266" lon="8.664825">
        <ele>95.660701</ele>
        <time>2026-07-07T21:12:02.948Z</time>
      </trkpt>
      <trkpt lat="51.754252" lon="8.665340">
        <ele>95.702310</ele>
        <time>2026-07-07T21:12:09.769Z</time>
      </trkpt>
      <trkpt lat="51.754266" lon="8.665786">
        <ele>95.778344</ele>
        <time>2026-07-07T21:12:15.735Z</time>
      </trkpt>
      <trkpt lat="51.754251" lon="8.665874">
        <ele>95.793884</ele>
        <time>2026-07-07T21:12:16.963Z</time>
      </trkpt>
      <trkpt lat="51.754202" lon="8.665982">
        <ele>95.816683</ele>
        <time>2026-07-07T21:12:18.759Z</time>
      </trkpt>
      <trkpt lat="51.754125" lon="8.666064">
        <ele>95.842049</ele>
        <time>2026-07-07T21:12:20.768Z</time>
      </trkpt>
      <trkpt lat="51.754055" lon="8.666172">
        <ele>95.868672</ele>
        <time>2026-07-07T21:12:22.876Z</time>
      </trkpt>
      <trkpt lat="51.754002" lon="8.666323">
        <ele>95.898226</ele>
        <time>2026-07-07T21:12:25.221Z</time>
      </trkpt>
      <trkpt lat="51.753753" lon="8.667316">
        <ele>96.080640</ele>
        <time>2026-07-07T21:12:39.683Z</time>
      </trkpt>
      <trkpt lat="51.753600" lon="8.668063">
        <ele>96.181198</ele>
        <time>2026-07-07T21:12:50.125Z</time>
      </trkpt>
      <trkpt lat="51.753569" lon="8.668349">
        <ele>96.201814</ele>
        <time>2026-07-07T21:12:53.906Z</time>
      </trkpt>
      <trkpt lat="51.753554" lon="8.668703">
        <ele>96.227008</ele>
        <time>2026-07-07T21:12:58.520Z</time>
      </trkpt>
      <trkpt lat="51.753591" lon="8.669367">
        <ele>96.274344</ele>
        <time>2026-07-07T21:13:07.339Z</time>
      </trkpt>
      <trkpt lat="51.753640" lon="8.669696">
        <ele>96.298371</ele>
        <time>2026-07-07T21:13:11.799Z</time>
      </trkpt>
      <trkpt lat="51.753785" lon="8.670141">
        <ele>96.334077</ele>
        <time>2026-07-07T21:13:18.297Z</time>
      </trkpt>
      <trkpt lat="51.753975" lon="8.670532">
        <ele>96.403977</ele>
        <time>2026-07-07T21:13:24.801Z</time>
      </trkpt>
      <trkpt lat="51.754205" lon="8.670860">
        <ele>96.650201</ele>
        <time>2026-07-07T21:13:31.398Z</time>
      </trkpt>
      <trkpt lat="51.754497" lon="8.671248">
        <ele>96.953639</ele>
        <time>2026-07-07T21:13:39.679Z</time>
      </trkpt>
      <trkpt lat="51.754572" lon="8.671407">
        <ele>97.052950</ele>
        <time>2026-07-07T21:13:42.406Z</time>
      </trkpt>
      <trkpt lat="51.754630" lon="8.671636">
        <ele>97.175872</ele>
        <time>2026-07-07T21:13:45.820Z</time>
      </trkpt>
      <trkpt lat="51.754627" lon="8.672550">
        <ele>97.629957</ele>
        <time>2026-07-07T21:13:58.616Z</time>
      </trkpt>
      <trkpt lat="51.754625" lon="8.672629">
        <ele>97.669238</ele>
        <time>2026-07-07T21:13:59.722Z</time>
      </trkpt>
      <trkpt lat="51.754596" lon="8.673159">
        <ele>98.006876</ele>
        <time>2026-07-07T21:14:07.340Z</time>
      </trkpt>
      <trkpt lat="51.754571" lon="8.673286">
        <ele>98.111461</ele>
        <time>2026-07-07T21:14:09.252Z</time>
      </trkpt>
      <trkpt lat="51.754554" lon="8.673324">
        <ele>98.148255</ele>
        <time>2026-07-07T21:14:09.927Z</time>
      </trkpt>
      <trkpt lat="51.754517" lon="8.673409">
        <ele>98.229802</ele>
        <time>2026-07-07T21:14:11.418Z</time>
      </trkpt>
      <trkpt lat="51.754192" lon="8.673807">
        <ele>98.746828</ele>
        <time>2026-07-07T21:14:20.797Z</time>
      </trkpt>
      <trkpt lat="51.754085" lon="8.674012">
        <ele>98.957264</ele>
        <time>2026-07-07T21:14:24.598Z</time>
      </trkpt>
      <trkpt lat="51.754035" lon="8.674170">
        <ele>99.096523</ele>
        <time>2026-07-07T21:14:27.114Z</time>
      </trkpt>
      <trkpt lat="51.753984" lon="8.674496">
        <ele>99.360406</ele>
        <time>2026-07-07T21:14:31.854Z</time>
      </trkpt>
      <trkpt lat="51.753956" lon="8.675179">
        <ele>99.897589</ele>
        <time>2026-07-07T21:14:41.475Z</time>
      </trkpt>
      <trkpt lat="51.753867" lon="8.675413">
        <ele>100.089490</ele>
        <time>2026-07-07T21:14:45.296Z</time>
      </trkpt>
      <trkpt lat="51.753831" lon="8.675543">
        <ele>100.098851</ele>
        <time>2026-07-07T21:14:47.261Z</time>
      </trkpt>
      <trkpt lat="51.753734" lon="8.676035">
        <ele>100.132790</ele>
        <time>2026-07-07T21:14:54.238Z</time>
      </trkpt>
      <trkpt lat="51.753720" lon="8.676447">
        <ele>100.159912</ele>
        <time>2026-07-07T21:14:59.690Z</time>
      </trkpt>
      <trkpt lat="51.753676" lon="8.676657">
        <ele>100.174484</ele>
        <time>2026-07-07T21:15:02.579Z</time>
      </trkpt>
      <trkpt lat="51.753619" lon="8.676766">
        <ele>100.183863</ele>
        <time>2026-07-07T21:15:04.431Z</time>
      </trkpt>
      <trkpt lat="51.753543" lon="8.676851">
        <ele>100.193678</ele>
        <time>2026-07-07T21:15:06.347Z</time>
      </trkpt>
      <trkpt lat="51.753468" lon="8.676875">
        <ele>100.201796</ele>
        <time>2026-07-07T21:15:07.955Z</time>
      </trkpt>
      <trkpt lat="51.753442" lon="8.676882">
        <ele>100.204595</ele>
        <time>2026-07-07T21:15:08.503Z</time>
      </trkpt>
      <trkpt lat="51.753094" lon="8.676855">
        <ele>100.241588</ele>
        <time>2026-07-07T21:15:15.682Z</time>
      </trkpt>
      <trkpt lat="51.752646" lon="8.676751">
        <ele>100.251311</ele>
        <time>2026-07-07T21:15:24.960Z</time>
      </trkpt>
      <trkpt lat="51.752600" lon="8.676844">
        <ele>100.232675</ele>
        <time>2026-07-07T21:15:26.468Z</time>
      </trkpt>
      <trkpt lat="51.752493" lon="8.677225">
        <ele>100.167179</ele>
        <time>2026-07-07T21:15:31.740Z</time>
      </trkpt>
      <trkpt lat="51.751933" lon="8.679566">
        <ele>99.766848</ele>
        <time>2026-07-07T21:16:03.938Z</time>
      </trkpt>
      <trkpt lat="51.751893" lon="8.679841">
        <ele>99.715938</ele>
        <time>2026-07-07T21:16:07.553Z</time>
      </trkpt>
      <trkpt lat="51.751868" lon="8.681078">
        <ele>99.492891</ele>
        <time>2026-07-07T21:16:23.006Z</time>
      </trkpt>
      <trkpt lat="51.751844" lon="8.681232">
        <ele>99.464272</ele>
        <time>2026-07-07T21:16:24.966Z</time>
      </trkpt>
      <trkpt lat="51.751788" lon="8.681323">
        <ele>99.441148</ele>
        <time>2026-07-07T21:16:26.569Z</time>
      </trkpt>
      <trkpt lat="51.751452" lon="8.681505">
        <ele>99.337982</ele>
        <time>2026-07-07T21:16:33.750Z</time>
      </trkpt>
      <trkpt lat="51.751322" lon="8.681647">
        <ele>99.314433</ele>
        <time>2026-07-07T21:16:37.031Z</time>
      </trkpt>
      <trkpt lat="51.751256" lon="8.681860">
        <ele>99.397207</ele>
        <time>2026-07-07T21:16:40.178Z</time>
      </trkpt>
      <trkpt lat="51.751234" lon="8.682020">
        <ele>99.454163</ele>
        <time>2026-07-07T21:16:42.378Z</time>
      </trkpt>
      <trkpt lat="51.751230" lon="8.682548">
        <ele>99.637662</ele>
        <time>2026-07-07T21:16:49.605Z</time>
      </trkpt>
      <trkpt lat="51.751218" lon="8.683106">
        <ele>99.831689</ele>
        <time>2026-07-07T21:16:57.330Z</time>
      </trkpt>
      <trkpt lat="51.751204" lon="8.683265">
        <ele>99.887499</ele>
        <time>2026-07-07T21:16:59.563Z</time>
      </trkpt>
      <trkpt lat="51.751161" lon="8.683420">
        <ele>99.946524</ele>
        <time>2026-07-07T21:17:01.925Z</time>
      </trkpt>
      <trkpt lat="51.750855" lon="8.683701">
        <ele>100.144110</ele>
        <time>2026-07-07T21:17:09.872Z</time>
      </trkpt>
      <trkpt lat="51.750763" lon="8.683958">
        <ele>100.247277</ele>
        <time>2026-07-07T21:17:13.991Z</time>
      </trkpt>
      <trkpt lat="51.750698" lon="8.684304">
        <ele>100.292905</ele>
        <time>2026-07-07T21:17:18.935Z</time>
      </trkpt>
      <trkpt lat="51.750608" lon="8.685424">
        <ele>100.190240</ele>
        <time>2026-07-07T21:17:33.663Z</time>
      </trkpt>
      <trkpt lat="51.750602" lon="8.685541">
        <ele>100.179568</ele>
        <time>2026-07-07T21:17:35.157Z</time>
      </trkpt>
      <trkpt lat="51.750552" lon="8.686421">
        <ele>100.099236</ele>
        <time>2026-07-07T21:17:46.286Z</time>
      </trkpt>
      <trkpt lat="51.750481" lon="8.687650">
        <ele>99.647548</ele>
        <time>2026-07-07T21:18:01.582Z</time>
      </trkpt>
      <trkpt lat="51.750591" lon="8.687678">
        <ele>99.536089</ele>
        <time>2026-07-07T21:18:03.778Z</time>
      </trkpt>
      <trkpt lat="51.751035" lon="8.687791">
        <ele>99.086199</ele>
        <time>2026-07-07T21:18:12.632Z</time>
      </trkpt>
      <trkpt lat="51.751160" lon="8.687823">
        <ele>98.959522</ele>
        <time>2026-07-07T21:18:15.039Z</time>
      </trkpt>
      <trkpt lat="51.751950" lon="8.688008">
        <ele>98.200842</ele>
        <time>2026-07-07T21:18:29.685Z</time>
      </trkpt>
      <trkpt lat="51.752009" lon="8.688001">
        <ele>98.169853</ele>
        <time>2026-07-07T21:18:31.602Z</time>
      </trkpt>
      <trkpt lat="51.752562" lon="8.688142">
        <ele>97.876598</ele>
        <time>2026-07-07T21:18:43.461Z</time>
      </trkpt>
      <trkpt lat="51.754395" lon="8.688763">
        <ele>97.279438</ele>
        <time>2026-07-07T21:19:27.328Z</time>
      </trkpt>
      <trkpt lat="51.754532" lon="8.688807">
        <ele>97.275216</ele>
        <time>2026-07-07T21:19:30.679Z</time>
      </trkpt>
      <trkpt lat="51.754694" lon="8.688862">
        <ele>97.270213</ele>
        <time>2026-07-07T21:19:34.304Z</time>
      </trkpt>
      <trkpt lat="51.754901" lon="8.688945">
        <ele>97.263766</ele>
        <time>2026-07-07T21:19:38.850Z</time>
      </trkpt>
      <trkpt lat="51.754950" lon="8.688813">
        <ele>97.260886</ele>
        <time>2026-07-07T21:19:40.796Z</time>
      </trkpt>
      <trkpt lat="51.754952" lon="8.688532">
        <ele>97.255628</ele>
        <time>2026-07-07T21:19:44.765Z</time>
      </trkpt>
      <trkpt lat="51.754970" lon="8.688241">
        <ele>97.250157</ele>
        <time>2026-07-07T21:19:48.885Z</time>
      </trkpt>
      <trkpt lat="51.755066" lon="8.687953">
        <ele>97.210088</ele>
        <time>2026-07-07T21:19:53.445Z</time>
      </trkpt>
      <trkpt lat="51.755163" lon="8.687535">
        <ele>97.139336</ele>
        <time>2026-07-07T21:19:59.635Z</time>
      </trkpt>
      <trkpt lat="51.755033" lon="8.687392">
        <ele>97.099067</ele>
        <time>2026-07-07T21:20:03.166Z</time>
      </trkpt>
      <trkpt lat="51.754982" lon="8.687230">
        <ele>97.070262</ele>
        <time>2026-07-07T21:20:05.695Z</time>
      </trkpt>
      <trkpt lat="51.754994" lon="8.687041">
        <ele>97.040149</ele>
        <time>2026-07-07T21:20:08.363Z</time>
      </trkpt>
      <trkpt lat="51.755001" lon="8.686910">
        <ele>97.019310</ele>
        <time>2026-07-07T21:20:10.213Z</time>
      </trkpt>
      <trkpt lat="51.755041" lon="8.686809">
        <ele>97.000306</ele>
        <time>2026-07-07T21:20:11.883Z</time>
      </trkpt>
      <trkpt lat="51.755101" lon="8.686789">
        <ele>96.984620</ele>
        <time>2026-07-07T21:20:13.268Z</time>
      </trkpt>
      <trkpt lat="51.755358" lon="8.686935">
        <ele>96.914869</ele>
        <time>2026-07-07T21:20:19.475Z</time>
      </trkpt>
      <trkpt lat="51.755582" lon="8.687219">
        <ele>96.841963</ele>
        <time>2026-07-07T21:20:26.072Z</time>
      </trkpt>
      <trkpt lat="51.755624" lon="8.687308">
        <ele>96.824225</ele>
        <time>2026-07-07T21:20:27.701Z</time>
      </trkpt>
      <trkpt lat="51.755655" lon="8.687479">
        <ele>96.795985</ele>
        <time>2026-07-07T21:20:30.322Z</time>
      </trkpt>
      <trkpt lat="51.755660" lon="8.687628">
        <ele>96.788460</ele>
        <time>2026-07-07T21:20:32.530Z</time>
      </trkpt>
      <trkpt lat="51.755661" lon="8.687644">
        <ele>96.788525</ele>
        <time>2026-07-07T21:20:32.772Z</time>
      </trkpt>
      <trkpt lat="51.755631" lon="8.687793">
        <ele>96.789152</ele>
        <time>2026-07-07T21:20:35.085Z</time>
      </trkpt>
      <trkpt lat="51.755580" lon="8.687896">
        <ele>96.789680</ele>
        <time>2026-07-07T21:20:37.046Z</time>
      </trkpt>
      <trkpt lat="51.755135" lon="8.688247">
        <ele>96.792884</ele>
        <time>2026-07-07T21:20:48.868Z</time>
      </trkpt>
      <trkpt lat="51.754952" lon="8.688532">
        <ele>96.794528</ele>
        <time>2026-07-07T21:20:54.854Z</time>
      </trkpt>
      <trkpt lat="51.754950" lon="8.688813">
        <ele>96.795654</ele>
        <time>2026-07-07T21:20:58.926Z</time>
      </trkpt>
      <trkpt lat="51.754901" lon="8.688945">
        <ele>96.796270</ele>
        <time>2026-07-07T21:21:00.911Z</time>
      </trkpt>
      <trkpt lat="51.754856" lon="8.689092">
        <ele>96.796927</ele>
        <time>2026-07-07T21:21:03.041Z</time>
      </trkpt>
      <trkpt lat="51.754777" lon="8.689251">
        <ele>96.797743</ele>
        <time>2026-07-07T21:21:05.945Z</time>
      </trkpt>
      <trkpt lat="51.754739" lon="8.689381">
        <ele>96.798319</ele>
        <time>2026-07-07T21:21:07.970Z</time>
      </trkpt>
      <trkpt lat="51.754705" lon="8.689656">
        <ele>96.799442</ele>
        <time>2026-07-07T21:21:11.937Z</time>
      </trkpt>
      <trkpt lat="51.754709" lon="8.690044">
        <ele>96.852991</ele>
        <time>2026-07-07T21:21:17.354Z</time>
      </trkpt>
      <trkpt lat="51.754653" lon="8.690543">
        <ele>96.936414</ele>
        <time>2026-07-07T21:21:24.468Z</time>
      </trkpt>
      <trkpt lat="51.754667" lon="8.690926">
        <ele>96.999528</ele>
        <time>2026-07-07T21:21:29.928Z</time>
      </trkpt>
      <trkpt lat="51.754752" lon="8.691282">
        <ele>97.062295</ele>
        <time>2026-07-07T21:21:35.450Z</time>
      </trkpt>
      <trkpt lat="51.754760" lon="8.691312">
        <ele>97.067669</ele>
        <time>2026-07-07T21:21:35.924Z</time>
      </trkpt>
      <trkpt lat="51.754852" lon="8.691532">
        <ele>97.111343</ele>
        <time>2026-07-07T21:21:39.860Z</time>
      </trkpt>
      <trkpt lat="51.755020" lon="8.691771">
        <ele>97.170830</ele>
        <time>2026-07-07T21:21:45.269Z</time>
      </trkpt>
      <trkpt lat="51.755214" lon="8.691946">
        <ele>97.229877</ele>
        <time>2026-07-07T21:21:50.680Z</time>
      </trkpt>
      <trkpt lat="51.755411" lon="8.692006">
        <ele>97.293805</ele>
        <time>2026-07-07T21:21:55.616Z</time>
      </trkpt>
      <trkpt lat="51.755927" lon="8.691999">
        <ele>97.697503</ele>
        <time>2026-07-07T21:22:08.337Z</time>
      </trkpt>
      <trkpt lat="51.756178" lon="8.691936">
        <ele>97.896225</ele>
        <time>2026-07-07T21:22:14.603Z</time>
      </trkpt>
      <trkpt lat="51.756594" lon="8.691934">
        <ele>98.221677</ele>
        <time>2026-07-07T21:22:24.817Z</time>
      </trkpt>
      <trkpt lat="51.756627" lon="8.691879">
        <ele>98.258771</ele>
        <time>2026-07-07T21:22:25.957Z</time>
      </trkpt>
      <trkpt lat="51.756856" lon="8.691087">
        <ele>98.682088</ele>
        <time>2026-07-07T21:22:39.040Z</time>
      </trkpt>
      <trkpt lat="51.757379" lon="8.690193">
        <ele>97.772441</ele>
        <time>2026-07-07T21:22:55.530Z</time>
      </trkpt>
      <trkpt lat="51.757452" lon="8.690010">
        <ele>97.610226</ele>
        <time>2026-07-07T21:22:58.275Z</time>
      </trkpt>
      <trkpt lat="51.757814" lon="8.689340">
        <ele>96.947583</ele>
        <time>2026-07-07T21:23:09.348Z</time>
      </trkpt>
      <trkpt lat="51.758457" lon="8.688258">
        <ele>96.335240</ele>
        <time>2026-07-07T21:23:28.506Z</time>
      </trkpt>
      <trkpt lat="51.758577" lon="8.688152">
        <ele>96.291208</ele>
        <time>2026-07-07T21:23:31.569Z</time>
      </trkpt>
      <trkpt lat="51.758747" lon="8.688105">
        <ele>96.235679</ele>
        <time>2026-07-07T21:23:35.557Z</time>
      </trkpt>
      <trkpt lat="51.759155" lon="8.688202">
        <ele>96.102905</ele>
        <time>2026-07-07T21:23:45.261Z</time>
      </trkpt>
      <trkpt lat="51.759777" lon="8.688438">
        <ele>96.041103</ele>
        <time>2026-07-07T21:24:00.646Z</time>
      </trkpt>
      <trkpt lat="51.760339" lon="8.688401">
        <ele>96.460005</ele>
        <time>2026-07-07T21:24:14.376Z</time>
      </trkpt>
      <trkpt lat="51.760455" lon="8.688392">
        <ele>96.546497</ele>
        <time>2026-07-07T21:24:17.234Z</time>
      </trkpt>
      <trkpt lat="51.760362" lon="8.688160">
        <ele>96.673912</ele>
        <time>2026-07-07T21:24:21.409Z</time>
      </trkpt>
      <trkpt lat="51.760374" lon="8.688145">
        <ele>96.685212</ele>
        <time>2026-07-07T21:24:21.761Z</time>
      </trkpt>
      <trkpt lat="51.760362" lon="8.688160">
        <ele>96.696511</ele>
        <time>2026-07-07T21:24:22.112Z</time>
      </trkpt>
      <trkpt lat="51.760455" lon="8.688392">
        <ele>96.823926</ele>
        <time>2026-07-07T21:24:26.286Z</time>
      </trkpt>
      <trkpt lat="51.760697" lon="8.688459">
        <ele>97.006785</ele>
        <time>2026-07-07T21:24:32.273Z</time>
      </trkpt>
      <trkpt lat="51.760808" lon="8.688437">
        <ele>97.090074</ele>
        <time>2026-07-07T21:24:34.983Z</time>
      </trkpt>
      <trkpt lat="51.761006" lon="8.688255">
        <ele>97.259731</ele>
        <time>2026-07-07T21:24:40.505Z</time>
      </trkpt>
      <trkpt lat="51.761101" lon="8.688286">
        <ele>97.304069</ele>
        <time>2026-07-07T21:24:42.848Z</time>
      </trkpt>
      <trkpt lat="51.761513" lon="8.685277">
        <ele>97.917050</ele>
        <time>2026-07-07T21:25:24.104Z</time>
      </trkpt>
      <trkpt lat="51.761555" lon="8.684982">
        <ele>97.936423</ele>
        <time>2026-07-07T21:25:28.094Z</time>
      </trkpt>
      <trkpt lat="51.761645" lon="8.684246">
        <ele>97.984436</ele>
        <time>2026-07-07T21:25:37.876Z</time>
      </trkpt>
      <trkpt lat="51.761780" lon="8.682822">
        <ele>98.076632</ele>
        <time>2026-07-07T21:25:56.680Z</time>
      </trkpt>
      <trkpt lat="51.761755" lon="8.681997">
        <ele>98.115853</ele>
        <time>2026-07-07T21:26:07.535Z</time>
      </trkpt>
      <trkpt lat="51.761525" lon="8.680326">
        <ele>98.192117</ele>
        <time>2026-07-07T21:26:30.139Z</time>
      </trkpt>
      <trkpt lat="51.761462" lon="8.679885">
        <ele>98.212281</ele>
        <time>2026-07-07T21:26:36.107Z</time>
      </trkpt>
      <trkpt lat="51.761421" lon="8.679666">
        <ele>98.212688</ele>
        <time>2026-07-07T21:26:39.094Z</time>
      </trkpt>
      <trkpt lat="51.761360" lon="8.679402">
        <ele>98.210621</ele>
        <time>2026-07-07T21:26:42.755Z</time>
      </trkpt>
      <trkpt lat="51.761367" lon="8.679182">
        <ele>98.209006</ele>
        <time>2026-07-07T21:26:45.592Z</time>
      </trkpt>
      <trkpt lat="51.761147" lon="8.677499">
        <ele>98.196394</ele>
        <time>2026-07-07T21:27:07.850Z</time>
      </trkpt>
      <trkpt lat="51.761065" lon="8.676534">
        <ele>98.232862</ele>
        <time>2026-07-07T21:27:20.744Z</time>
      </trkpt>
      <trkpt lat="51.761061" lon="8.676108">
        <ele>98.268537</ele>
        <time>2026-07-07T21:27:26.411Z</time>
      </trkpt>
      <trkpt lat="51.761112" lon="8.675386">
        <ele>98.329386</ele>
        <time>2026-07-07T21:27:36.047Z</time>
      </trkpt>
      <trkpt lat="51.761224" lon="8.674623">
        <ele>98.395048</ele>
        <time>2026-07-07T21:27:46.366Z</time>
      </trkpt>
      <trkpt lat="51.761330" lon="8.674120">
        <ele>98.440295</ele>
        <time>2026-07-07T21:27:53.324Z</time>
      </trkpt>
      <trkpt lat="51.761601" lon="8.673329">
        <ele>98.532574</ele>
        <time>2026-07-07T21:28:05.264Z</time>
      </trkpt>
      <trkpt lat="51.761733" lon="8.673446">
        <ele>98.557402</ele>
        <time>2026-07-07T21:28:08.477Z</time>
      </trkpt>
      <trkpt lat="51.761927" lon="8.673479">
        <ele>98.589571</ele>
        <time>2026-07-07T21:28:12.653Z</time>
      </trkpt>
      <trkpt lat="51.761984" lon="8.673444">
        <ele>98.599627</ele>
        <time>2026-07-07T21:28:13.959Z</time>
      </trkpt>
      <trkpt lat="51.764175" lon="8.667532">
        <ele>99.241233</ele>
        <time>2026-07-07T21:29:45.226Z</time>
      </trkpt>
      <trkpt lat="51.764149" lon="8.667501">
        <ele>99.245392</ele>
        <time>2026-07-07T21:29:45.905Z</time>
      </trkpt>
      <trkpt lat="51.764058" lon="8.667405">
        <ele>99.259109</ele>
        <time>2026-07-07T21:29:48.179Z</time>
      </trkpt>
      <trkpt lat="51.764034" lon="8.667379">
        <ele>99.257806</ele>
        <time>2026-07-07T21:29:48.791Z</time>
      </trkpt>
      <trkpt lat="51.765453" lon="8.663294">
        <ele>98.986738</ele>
        <time>2026-07-07T21:30:49.490Z</time>
      </trkpt>
      <trkpt lat="51.765193" lon="8.663228">
        <ele>98.942224</ele>
        <time>2026-07-07T21:30:54.893Z</time>
      </trkpt>
      <trkpt lat="51.765598" lon="8.662039">
        <ele>98.864315</ele>
        <time>2026-07-07T21:31:12.098Z</time>
      </trkpt>
      <trkpt lat="51.765830" lon="8.661398">
        <ele>98.854290</ele>
        <time>2026-07-07T21:31:21.797Z</time>
      </trkpt>
      <trkpt lat="51.766376" lon="8.659698">
        <ele>98.807303</ele>
        <time>2026-07-07T21:31:47.101Z</time>
      </trkpt>
      <trkpt lat="51.766579" lon="8.658719">
        <ele>98.745438</ele>
        <time>2026-07-07T21:32:00.590Z</time>
      </trkpt>
      <trkpt lat="51.766663" lon="8.658112">
        <ele>98.708170</ele>
        <time>2026-07-07T21:32:09.467Z</time>
      </trkpt>
      <trkpt lat="51.766933" lon="8.654111">
        <ele>98.113448</ele>
        <time>2026-07-07T21:33:06.464Z</time>
      </trkpt>
      <trkpt lat="51.767148" lon="8.654151">
        <ele>98.049197</ele>
        <time>2026-07-07T21:33:13.950Z</time>
      </trkpt>
      <trkpt lat="51.767497" lon="8.648853">
        <ele>96.884772</ele>
        <time>2026-07-07T21:34:29.250Z</time>
      </trkpt>
      <trkpt lat="51.767508" lon="8.648745">
        <ele>96.858748</ele>
        <time>2026-07-07T21:34:30.722Z</time>
      </trkpt>
      <trkpt lat="51.767307" lon="8.648810">
        <ele>96.779993</ele>
        <time>2026-07-07T21:34:34.721Z</time>
      </trkpt>
      <trkpt lat="51.767315" lon="8.648704">
        <ele>96.754604</ele>
        <time>2026-07-07T21:34:36.010Z</time>
      </trkpt>
      <trkpt lat="51.767342" lon="8.648357">
        <ele>96.671450</ele>
        <time>2026-07-07T21:34:40.774Z</time>
      </trkpt>
      <trkpt lat="51.767409" lon="8.647308">
        <ele>96.420712</ele>
        <time>2026-07-07T21:34:55.324Z</time>
      </trkpt>
      <trkpt lat="51.767061" lon="8.643097">
        <ele>96.809081</ele>
        <time>2026-07-07T21:35:58.186Z</time>
      </trkpt>
      <trkpt lat="51.767059" lon="8.642812">
        <ele>96.786702</ele>
        <time>2026-07-07T21:36:02.351Z</time>
      </trkpt>
      <trkpt lat="51.767059" lon="8.642783">
        <ele>96.784425</ele>
        <time>2026-07-07T21:36:02.772Z</time>
      </trkpt>
      <trkpt lat="51.767049" lon="8.642656">
        <ele>96.774373</ele>
        <time>2026-07-07T21:36:05.510Z</time>
      </trkpt>
      <trkpt lat="51.766497" lon="8.635884">
        <ele>96.158664</ele>
        <time>2026-07-07T21:37:42.667Z</time>
      </trkpt>
      <trkpt lat="51.766472" lon="8.635754">
        <ele>96.142660</ele>
        <time>2026-07-07T21:37:44.592Z</time>
      </trkpt>
      <trkpt lat="51.766225" lon="8.632514">
        <ele>96.007842</ele>
        <time>2026-07-07T21:38:31.898Z</time>
      </trkpt>
      <trkpt lat="51.765473" lon="8.623315">
        <ele>94.639606</ele>
        <time>2026-07-07T21:40:43.641Z</time>
      </trkpt>
      <trkpt lat="51.764991" lon="8.617636">
        <ele>94.215896</ele>
        <time>2026-07-07T21:42:05.928Z</time>
      </trkpt>
      <trkpt lat="51.764932" lon="8.617203">
        <ele>94.192423</ele>
        <time>2026-07-07T21:42:12.301Z</time>
      </trkpt>
      <trkpt lat="51.764941" lon="8.616861">
        <ele>94.174301</ele>
        <time>2026-07-07T21:42:17.220Z</time>
      </trkpt>
      <trkpt lat="51.764878" lon="8.616157">
        <ele>94.136644</ele>
        <time>2026-07-07T21:42:27.439Z</time>
      </trkpt>
      <trkpt lat="51.764861" lon="8.615553">
        <ele>94.104634</ele>
        <time>2026-07-07T21:42:36.109Z</time>
      </trkpt>
      <trkpt lat="51.764876" lon="8.615119">
        <ele>94.081622</ele>
        <time>2026-07-07T21:42:42.352Z</time>
      </trkpt>
      <trkpt lat="51.765111" lon="8.612062">
        <ele>93.921450</ele>
        <time>2026-07-07T21:43:26.618Z</time>
      </trkpt>
      <trkpt lat="51.765118" lon="8.610937">
        <ele>93.822427</ele>
        <time>2026-07-07T21:43:42.834Z</time>
      </trkpt>
      <trkpt lat="51.764489" lon="8.604994">
        <ele>93.336294</ele>
        <time>2026-07-07T21:45:08.705Z</time>
      </trkpt>
      <trkpt lat="51.764404" lon="8.604345">
        <ele>93.372836</ele>
        <time>2026-07-07T21:45:18.492Z</time>
      </trkpt>
      <trkpt lat="51.764428" lon="8.604337">
        <ele>93.375017</ele>
        <time>2026-07-07T21:45:19.026Z</time>
      </trkpt>
      <trkpt lat="51.764578" lon="8.604273">
        <ele>93.388825</ele>
        <time>2026-07-07T21:45:22.386Z</time>
      </trkpt>
      <trkpt lat="51.765141" lon="8.604027">
        <ele>93.456384</ele>
        <time>2026-07-07T21:45:35.041Z</time>
      </trkpt>
      <trkpt lat="51.765211" lon="8.603990">
        <ele>93.470791</ele>
        <time>2026-07-07T21:45:36.641Z</time>
      </trkpt>
      <trkpt lat="51.765392" lon="8.603877">
        <ele>93.508747</ele>
        <time>2026-07-07T21:45:40.836Z</time>
      </trkpt>
      <trkpt lat="51.766385" lon="8.603205">
        <ele>93.719333</ele>
        <time>2026-07-07T21:46:03.791Z</time>
      </trkpt>
      <trkpt lat="51.767161" lon="8.602658">
        <ele>93.893819</ele>
        <time>2026-07-07T21:46:21.937Z</time>
      </trkpt>
      <trkpt lat="51.767361" lon="8.602517">
        <ele>93.940096</ele>
        <time>2026-07-07T21:46:26.675Z</time>
      </trkpt>
      <trkpt lat="51.769190" lon="8.601228">
        <ele>94.270922</ele>
        <time>2026-07-07T21:47:09.545Z</time>
      </trkpt>
      <trkpt lat="51.769146" lon="8.600844">
        <ele>94.298780</ele>
        <time>2026-07-07T21:47:14.669Z</time>
      </trkpt>
      <trkpt lat="51.769066" lon="8.600119">
        <ele>94.351313</ele>
        <time>2026-07-07T21:47:24.344Z</time>
      </trkpt>
      <trkpt lat="51.768938" lon="8.598582">
        <ele>94.226398</ele>
        <time>2026-07-07T21:47:44.418Z</time>
      </trkpt>
      <trkpt lat="51.768937" lon="8.598360">
        <ele>94.202405</ele>
        <time>2026-07-07T21:47:47.259Z</time>
      </trkpt>
      <trkpt lat="51.768937" lon="8.596578">
        <ele>93.987270</ele>
        <time>2026-07-07T21:48:09.913Z</time>
      </trkpt>
      <trkpt lat="51.769562" lon="8.595904">
        <ele>93.789333</ele>
        <time>2026-07-07T21:48:25.224Z</time>
      </trkpt>
      <trkpt lat="51.770229" lon="8.595185">
        <ele>93.582311</ele>
        <time>2026-07-07T21:48:41.826Z</time>
      </trkpt>
      <trkpt lat="51.770491" lon="8.594888">
        <ele>93.655694</ele>
        <time>2026-07-07T21:48:48.459Z</time>
      </trkpt>
      <trkpt lat="51.769591" lon="8.592764">
        <ele>94.079078</ele>
        <time>2026-07-07T21:49:22.793Z</time>
      </trkpt>
      <trkpt lat="51.769148" lon="8.590591">
        <ele>95.073368</ele>
        <time>2026-07-07T21:49:54.658Z</time>
      </trkpt>
      <trkpt lat="51.769095" lon="8.590321">
        <ele>95.196469</ele>
        <time>2026-07-07T21:49:58.460Z</time>
      </trkpt>
      <trkpt lat="51.768938" lon="8.589526">
        <ele>95.444219</ele>
        <time>2026-07-07T21:50:09.447Z</time>
      </trkpt>
      <trkpt lat="51.768931" lon="8.589489">
        <ele>95.454660</ele>
        <time>2026-07-07T21:50:09.960Z</time>
      </trkpt>
      <trkpt lat="51.768746" lon="8.588520">
        <ele>95.728332</ele>
        <time>2026-07-07T21:50:23.278Z</time>
      </trkpt>
      <trkpt lat="51.768115" lon="8.585215">
        <ele>96.674922</ele>
        <time>2026-07-07T21:51:10.851Z</time>
      </trkpt>
      <trkpt lat="51.768054" lon="8.585181">
        <ele>96.703659</ele>
        <time>2026-07-07T21:51:12.251Z</time>
      </trkpt>
      <trkpt lat="51.767356" lon="8.585164">
        <ele>96.418957</ele>
        <time>2026-07-07T21:51:26.579Z</time>
      </trkpt>
      <trkpt lat="51.767316" lon="8.585164">
        <ele>96.375518</ele>
        <time>2026-07-07T21:51:27.342Z</time>
      </trkpt>
      <trkpt lat="51.766890" lon="8.584841">
        <ele>95.864497</ele>
        <time>2026-07-07T21:51:36.017Z</time>
      </trkpt>
      <trkpt lat="51.766110" lon="8.584229">
        <ele>94.922859</ele>
        <time>2026-07-07T21:51:51.682Z</time>
      </trkpt>
      <trkpt lat="51.765558" lon="8.583797">
        <ele>94.914778</ele>
        <time>2026-07-07T21:52:03.685Z</time>
      </trkpt>
      <trkpt lat="51.765275" lon="8.583525">
        <ele>94.929915</ele>
        <time>2026-07-07T21:52:10.654Z</time>
      </trkpt>
      <trkpt lat="51.765213" lon="8.583410">
        <ele>94.934254</ele>
        <time>2026-07-07T21:52:12.676Z</time>
      </trkpt>
      <trkpt lat="51.764995" lon="8.582856">
        <ele>94.952931</ele>
        <time>2026-07-07T21:52:21.668Z</time>
      </trkpt>
      <trkpt lat="51.764889" lon="8.582208">
        <ele>95.005987</ele>
        <time>2026-07-07T21:52:31.015Z</time>
      </trkpt>
      <trkpt lat="51.764729" lon="8.581693">
        <ele>95.464298</ele>
        <time>2026-07-07T21:52:39.161Z</time>
      </trkpt>
      <trkpt lat="51.764884" lon="8.581366">
        <ele>95.791889</ele>
        <time>2026-07-07T21:52:44.982Z</time>
      </trkpt>
      <trkpt lat="51.765108" lon="8.581032">
        <ele>96.183591</ele>
        <time>2026-07-07T21:52:51.916Z</time>
      </trkpt>
      <trkpt lat="51.765396" lon="8.580559">
        <ele>96.711321</ele>
        <time>2026-07-07T21:53:01.247Z</time>
      </trkpt>
      <trkpt lat="51.765439" lon="8.580213">
        <ele>96.991998</ele>
        <time>2026-07-07T21:53:06.250Z</time>
      </trkpt>
      <trkpt lat="51.765606" lon="8.579103">
        <ele>97.945800</ele>
        <time>2026-07-07T21:53:22.487Z</time>
      </trkpt>
      <trkpt lat="51.765662" lon="8.578907">
        <ele>98.130067</ele>
        <time>2026-07-07T21:53:25.572Z</time>
      </trkpt>
      <trkpt lat="51.765821" lon="8.578348">
        <ele>98.655189</ele>
        <time>2026-07-07T21:53:34.318Z</time>
      </trkpt>
      <trkpt lat="51.766083" lon="8.577594">
        <ele>99.393276</ele>
        <time>2026-07-07T21:53:46.554Z</time>
      </trkpt>
      <trkpt lat="51.766143" lon="8.577416">
        <ele>99.566283</ele>
        <time>2026-07-07T21:53:49.404Z</time>
      </trkpt>
      <trkpt lat="51.766367" lon="8.576700">
        <ele>100.179260</ele>
        <time>2026-07-07T21:54:00.565Z</time>
      </trkpt>
      <trkpt lat="51.766394" lon="8.576617">
        <ele>100.247522</ele>
        <time>2026-07-07T21:54:01.860Z</time>
      </trkpt>
      <trkpt lat="51.766475" lon="8.576272">
        <ele>100.516145</ele>
        <time>2026-07-07T21:54:06.991Z</time>
      </trkpt>
      <trkpt lat="51.766526" lon="8.576177">
        <ele>100.607698</ele>
        <time>2026-07-07T21:54:08.751Z</time>
      </trkpt>
      <trkpt lat="51.766769" lon="8.575836">
        <ele>100.986291</ele>
        <time>2026-07-07T21:54:16.024Z</time>
      </trkpt>
      <trkpt lat="51.766836" lon="8.575834">
        <ele>101.065118</ele>
        <time>2026-07-07T21:54:17.546Z</time>
      </trkpt>
      <trkpt lat="51.766836" lon="8.575783">
        <ele>101.102245</ele>
        <time>2026-07-07T21:54:18.261Z</time>
      </trkpt>
      <trkpt lat="51.766728" lon="8.575786">
        <ele>101.229306</ele>
        <time>2026-07-07T21:54:20.723Z</time>
      </trkpt>
      <trkpt lat="51.766727" lon="8.575736">
        <ele>101.265724</ele>
        <time>2026-07-07T21:54:21.421Z</time>
      </trkpt>
      <trkpt lat="51.766878" lon="8.575707">
        <ele>101.444599</ele>
        <time>2026-07-07T21:54:24.876Z</time>
      </trkpt>
      <trkpt lat="51.766857" lon="8.575623">
        <ele>101.510551</ele>
        <time>2026-07-07T21:54:26.151Z</time>
      </trkpt>
      <trkpt lat="51.767002" lon="8.574785">
        <ele>102.064722</ele>
        <time>2026-07-07T21:54:38.466Z</time>
      </trkpt>
      <trkpt lat="51.767137" lon="8.573965">
        <ele>102.497879</ele>
        <time>2026-07-07T21:54:53.203Z</time>
      </trkpt>
      <trkpt lat="51.767154" lon="8.573602">
        <ele>102.683715</ele>
        <time>2026-07-07T21:54:58.319Z</time>
      </trkpt>
      <trkpt lat="51.767125" lon="8.573117">
        <ele>102.932454</ele>
        <time>2026-07-07T21:55:05.064Z</time>
      </trkpt>
      <trkpt lat="51.766998" lon="8.572485">
        <ele>103.271663</ele>
        <time>2026-07-07T21:55:14.061Z</time>
      </trkpt>
      <trkpt lat="51.767081" lon="8.572515">
        <ele>103.341820</ele>
        <time>2026-07-07T21:55:15.852Z</time>
      </trkpt>
      <trkpt lat="51.767518" lon="8.572246">
        <ele>103.092720</ele>
        <time>2026-07-07T21:55:25.336Z</time>
      </trkpt>
      <trkpt lat="51.767595" lon="8.572168">
        <ele>103.037384</ele>
        <time>2026-07-07T21:55:27.114Z</time>
      </trkpt>
      <trkpt lat="51.767495" lon="8.572079">
        <ele>102.967870</ele>
        <time>2026-07-07T21:55:29.349Z</time>
      </trkpt>
      <trkpt lat="51.767262" lon="8.571730">
        <ele>102.774421</ele>
        <time>2026-07-07T21:55:35.508Z</time>
      </trkpt>
      <trkpt lat="51.766945" lon="8.571092">
        <ele>102.466112</ele>
        <time>2026-07-07T21:55:45.400Z</time>
      </trkpt>
      <trkpt lat="51.767208" lon="8.570732">
        <ele>102.277903</ele>
        <time>2026-07-07T21:55:52.182Z</time>
      </trkpt>
      <trkpt lat="51.767237" lon="8.570696">
        <ele>102.299888</ele>
        <time>2026-07-07T21:55:52.890Z</time>
      </trkpt>
      <trkpt lat="51.767767" lon="8.570114">
        <ele>102.685120</ele>
        <time>2026-07-07T21:56:05.902Z</time>
      </trkpt>
      <trkpt lat="51.767841" lon="8.569893">
        <ele>102.778603</ele>
        <time>2026-07-07T21:56:09.279Z</time>
      </trkpt>
      <trkpt lat="51.767856" lon="8.569427">
        <ele>102.952206</ele>
        <time>2026-07-07T21:56:15.727Z</time>
      </trkpt>
      <trkpt lat="51.767863" lon="8.569146">
        <ele>103.056833</ele>
        <time>2026-07-07T21:56:19.693Z</time>
      </trkpt>
      <trkpt lat="51.767690" lon="8.567588">
        <ele>104.277491</ele>
        <time>2026-07-07T21:56:42.479Z</time>
      </trkpt>
      <trkpt lat="51.767641" lon="8.566621">
        <ele>105.405547</ele>
        <time>2026-07-07T21:56:56.655Z</time>
      </trkpt>
      <trkpt lat="51.767595" lon="8.566102">
        <ele>106.015126</ele>
        <time>2026-07-07T21:57:04.266Z</time>
      </trkpt>
      <trkpt lat="51.767525" lon="8.565635">
        <ele>106.573790</ele>
        <time>2026-07-07T21:57:11.130Z</time>
      </trkpt>
      <trkpt lat="51.767521" lon="8.565492">
        <ele>106.732000</ele>
        <time>2026-07-07T21:57:13.166Z</time>
      </trkpt>
      <trkpt lat="51.767521" lon="8.565437">
        <ele>106.754240</ele>
        <time>2026-07-07T21:57:13.932Z</time>
      </trkpt>
      <trkpt lat="51.767517" lon="8.564954">
        <ele>106.949566</ele>
        <time>2026-07-07T21:57:20.723Z</time>
      </trkpt>
      <trkpt lat="51.767485" lon="8.564573">
        <ele>107.105042</ele>
        <time>2026-07-07T21:57:26.070Z</time>
      </trkpt>
      <trkpt lat="51.767411" lon="8.564094">
        <ele>107.304677</ele>
        <time>2026-07-07T21:57:32.851Z</time>
      </trkpt>
      <trkpt lat="51.767289" lon="8.563588">
        <ele>107.524268</ele>
        <time>2026-07-07T21:57:40.129Z</time>
      </trkpt>
      <trkpt lat="51.767265" lon="8.563277">
        <ele>107.651000</ele>
        <time>2026-07-07T21:57:44.247Z</time>
      </trkpt>
      <trkpt lat="51.767288" lon="8.562943">
        <ele>107.786892</ele>
        <time>2026-07-07T21:57:48.597Z</time>
      </trkpt>
      <trkpt lat="51.767297" lon="8.562323">
        <ele>108.008799</ele>
        <time>2026-07-07T21:57:56.743Z</time>
      </trkpt>
      <trkpt lat="51.767291" lon="8.562232">
        <ele>108.037879</ele>
        <time>2026-07-07T21:57:57.964Z</time>
      </trkpt>
      <trkpt lat="51.767252" lon="8.561993">
        <ele>108.116421</ele>
        <time>2026-07-07T21:58:01.313Z</time>
      </trkpt>
      <trkpt lat="51.767077" lon="8.561439">
        <ele>108.314069</ele>
        <time>2026-07-07T21:58:09.813Z</time>
      </trkpt>
      <trkpt lat="51.767028" lon="8.561278">
        <ele>108.371082</ele>
        <time>2026-07-07T21:58:12.278Z</time>
      </trkpt>
      <trkpt lat="51.766938" lon="8.560907">
        <ele>108.497707</ele>
        <time>2026-07-07T21:58:17.750Z</time>
      </trkpt>
      <trkpt lat="51.766810" lon="8.560246">
        <ele>108.717794</ele>
        <time>2026-07-07T21:58:27.226Z</time>
      </trkpt>
      <trkpt lat="51.766883" lon="8.560206">
        <ele>108.757374</ele>
        <time>2026-07-07T21:58:28.976Z</time>
      </trkpt>
      <trkpt lat="51.766797" lon="8.559693">
        <ele>108.828228</ele>
        <time>2026-07-07T21:58:38.160Z</time>
      </trkpt>
      <trkpt lat="51.766766" lon="8.559345">
        <ele>108.830253</ele>
        <time>2026-07-07T21:58:45.625Z</time>
      </trkpt>
      <trkpt lat="51.766740" lon="8.559279">
        <ele>108.830704</ele>
        <time>2026-07-07T21:58:47.269Z</time>
      </trkpt>
      <trkpt lat="51.766686" lon="8.558875">
        <ele>108.833085</ele>
        <time>2026-07-07T21:58:56.118Z</time>
      </trkpt>
      <trkpt lat="51.766594" lon="8.558205">
        <ele>108.837038</ele>
        <time>2026-07-07T21:59:10.815Z</time>
      </trkpt>
      <trkpt lat="51.766550" lon="8.557857">
        <ele>108.839084</ele>
        <time>2026-07-07T21:59:18.422Z</time>
      </trkpt>
      <trkpt lat="51.766486" lon="8.557322">
        <ele>108.842223</ele>
        <time>2026-07-07T21:59:30.107Z</time>
      </trkpt>
      <trkpt lat="51.766465" lon="8.556987">
        <ele>108.854889</ele>
        <time>2026-07-07T21:59:34.383Z</time>
      </trkpt>
      <trkpt lat="51.766512" lon="8.556512">
        <ele>108.887299</ele>
        <time>2026-07-07T21:59:40.483Z</time>
      </trkpt>
      <trkpt lat="51.766652" lon="8.555815">
        <ele>108.936671</ele>
        <time>2026-07-07T21:59:49.668Z</time>
      </trkpt>
      <trkpt lat="51.766748" lon="8.555468">
        <ele>108.962279</ele>
        <time>2026-07-07T21:59:54.668Z</time>
      </trkpt>
      <trkpt lat="51.766931" lon="8.554990">
        <ele>109.000149</ele>
        <time>2026-07-07T22:00:02.263Z</time>
      </trkpt>
      <trkpt lat="51.767141" lon="8.554558">
        <ele>109.037160</ele>
        <time>2026-07-07T22:00:09.780Z</time>
      </trkpt>
      <trkpt lat="51.767324" lon="8.554265">
        <ele>109.271756</ele>
        <time>2026-07-07T22:00:15.564Z</time>
      </trkpt>
      <trkpt lat="51.767577" lon="8.553929">
        <ele>109.588137</ele>
        <time>2026-07-07T22:00:22.989Z</time>
      </trkpt>
      <trkpt lat="51.767924" lon="8.553601">
        <ele>109.976516</ele>
        <time>2026-07-07T22:00:32.200Z</time>
      </trkpt>
      <trkpt lat="51.768623" lon="8.553198">
        <ele>110.693512</ele>
        <time>2026-07-07T22:00:49.057Z</time>
      </trkpt>
      <trkpt lat="51.769859" lon="8.552644">
        <ele>110.434983</ele>
        <time>2026-07-07T22:01:15.948Z</time>
      </trkpt>
      <trkpt lat="51.770139" lon="8.552492">
        <ele>110.350649</ele>
        <time>2026-07-07T22:01:21.758Z</time>
      </trkpt>
      <trkpt lat="51.770527" lon="8.552187">
        <ele>109.966495</ele>
        <time>2026-07-07T22:01:30.107Z</time>
      </trkpt>
      <trkpt lat="51.770964" lon="8.551680">
        <ele>108.688245</ele>
        <time>2026-07-07T22:01:47.465Z</time>
      </trkpt>
      <trkpt lat="51.771139" lon="8.551401">
        <ele>108.104128</ele>
        <time>2026-07-07T22:01:54.911Z</time>
      </trkpt>
      <trkpt lat="51.771449" lon="8.550750">
        <ele>106.896323</ele>
        <time>2026-07-07T22:02:09.910Z</time>
      </trkpt>
      <trkpt lat="51.771678" lon="8.550016">
        <ele>105.699580</ele>
        <time>2026-07-07T22:02:25.027Z</time>
      </trkpt>
      <trkpt lat="51.771745" lon="8.549712">
        <ele>105.243806</ele>
        <time>2026-07-07T22:02:30.983Z</time>
      </trkpt>
      <trkpt lat="51.771820" lon="8.549151">
        <ele>104.433197</ele>
        <time>2026-07-07T22:02:41.612Z</time>
      </trkpt>
      <trkpt lat="51.771848" lon="8.548700">
        <ele>103.793031</ele>
        <time>2026-07-07T22:02:50.012Z</time>
      </trkpt>
      <trkpt lat="51.771860" lon="8.547303">
        <ele>101.869060</ele>
        <time>2026-07-07T22:03:17.607Z</time>
      </trkpt>
      <trkpt lat="51.771840" lon="8.546699">
        <ele>101.669596</ele>
        <time>2026-07-07T22:03:30.468Z</time>
      </trkpt>
      <trkpt lat="51.771754" lon="8.544235">
        <ele>100.781508</ele>
        <time>2026-07-07T22:04:01.996Z</time>
      </trkpt>
      <trkpt lat="51.771758" lon="8.543781">
        <ele>100.472460</ele>
        <time>2026-07-07T22:04:07.823Z</time>
      </trkpt>
      <trkpt lat="51.771838" lon="8.542758">
        <ele>99.770615</ele>
        <time>2026-07-07T22:04:20.494Z</time>
      </trkpt>
      <trkpt lat="51.772022" lon="8.541701">
        <ele>99.023241</ele>
        <time>2026-07-07T22:04:32.506Z</time>
      </trkpt>
      <trkpt lat="51.772142" lon="8.541192">
        <ele>98.443667</ele>
        <time>2026-07-07T22:04:38.418Z</time>
      </trkpt>
      <trkpt lat="51.772351" lon="8.540557">
        <ele>97.607093</ele>
        <time>2026-07-07T22:04:46.193Z</time>
      </trkpt>
      <trkpt lat="51.773088" lon="8.538959">
        <ele>95.371379</ele>
        <time>2026-07-07T22:05:08.037Z</time>
      </trkpt>
      <trkpt lat="51.773206" lon="8.538657">
        <ele>95.079481</ele>
        <time>2026-07-07T22:05:12.256Z</time>
      </trkpt>
      <trkpt lat="51.773428" lon="8.537943">
        <ele>94.426439</ele>
        <time>2026-07-07T22:05:21.690Z</time>
      </trkpt>
      <trkpt lat="51.773612" lon="8.537019">
        <ele>93.633161</ele>
        <time>2026-07-07T22:05:33.196Z</time>
      </trkpt>
      <trkpt lat="51.773663" lon="8.536594">
        <ele>93.279360</ele>
        <time>2026-07-07T22:05:38.286Z</time>
      </trkpt>
      <trkpt lat="51.773702" lon="8.535860">
        <ele>92.567953</ele>
        <time>2026-07-07T22:05:46.853Z</time>
      </trkpt>
      <trkpt lat="51.773687" lon="8.534872">
        <ele>91.588228</ele>
        <time>2026-07-07T22:05:58.000Z</time>
      </trkpt>
      <trkpt lat="51.773666" lon="8.534555">
        <ele>91.272182</ele>
        <time>2026-07-07T22:06:01.572Z</time>
      </trkpt>
      <trkpt lat="51.773601" lon="8.534286">
        <ele>90.985903</ele>
        <time>2026-07-07T22:06:04.805Z</time>
      </trkpt>
      <trkpt lat="51.773643" lon="8.534240">
        <ele>90.904619</ele>
        <time>2026-07-07T22:06:05.701Z</time>
      </trkpt>
      <trkpt lat="51.773668" lon="8.534111">
        <ele>90.770612</ele>
        <time>2026-07-07T22:06:07.208Z</time>
      </trkpt>
      <trkpt lat="51.773637" lon="8.532799">
        <ele>89.545491</ele>
        <time>2026-07-07T22:06:21.559Z</time>
      </trkpt>
      <trkpt lat="51.773644" lon="8.532064">
        <ele>88.883101</ele>
        <time>2026-07-07T22:06:29.629Z</time>
      </trkpt>
      <trkpt lat="51.773713" lon="8.531432">
        <ele>88.304807</ele>
        <time>2026-07-07T22:06:36.966Z</time>
      </trkpt>
      <trkpt lat="51.773808" lon="8.530939">
        <ele>87.839520</ele>
        <time>2026-07-07T22:06:43.145Z</time>
      </trkpt>
      <trkpt lat="51.774060" lon="8.529961">
        <ele>87.579979</ele>
        <time>2026-07-07T22:06:56.411Z</time>
      </trkpt>
      <trkpt lat="51.774276" lon="8.529236">
        <ele>87.481144</ele>
        <time>2026-07-07T22:07:06.983Z</time>
      </trkpt>
      <trkpt lat="51.774430" lon="8.528825">
        <ele>87.422128</ele>
        <time>2026-07-07T22:07:13.356Z</time>
      </trkpt>
      <trkpt lat="51.775096" lon="8.527278">
        <ele>86.827825</ele>
        <time>2026-07-07T22:07:37.876Z</time>
      </trkpt>
      <trkpt lat="51.775458" lon="8.526535">
        <ele>86.414865</ele>
        <time>2026-07-07T22:07:49.343Z</time>
      </trkpt>
      <trkpt lat="51.775793" lon="8.526099">
        <ele>86.111314</ele>
        <time>2026-07-07T22:07:57.300Z</time>
      </trkpt>
      <trkpt lat="51.776280" lon="8.525669">
        <ele>85.651479</ele>
        <time>2026-07-07T22:08:07.421Z</time>
      </trkpt>
      <trkpt lat="51.776641" lon="8.525456">
        <ele>85.326432</ele>
        <time>2026-07-07T22:08:14.462Z</time>
      </trkpt>
      <trkpt lat="51.780857" lon="8.524175">
        <ele>82.029788</ele>
        <time>2026-07-07T22:09:39.996Z</time>
      </trkpt>
      <trkpt lat="51.780970" lon="8.524140">
        <ele>81.956882</ele>
        <time>2026-07-07T22:09:42.305Z</time>
      </trkpt>
      <trkpt lat="51.782601" lon="8.523656">
        <ele>81.271258</ele>
        <time>2026-07-07T22:10:15.740Z</time>
      </trkpt>
      <trkpt lat="51.782867" lon="8.523539">
        <ele>81.176433</ele>
        <time>2026-07-07T22:10:21.515Z</time>
      </trkpt>
      <trkpt lat="51.783329" lon="8.523244">
        <ele>81.444102</ele>
        <time>2026-07-07T22:10:32.114Z</time>
      </trkpt>
      <trkpt lat="51.784086" lon="8.522664">
        <ele>81.895514</ele>
        <time>2026-07-07T22:10:50.774Z</time>
      </trkpt>
      <trkpt lat="51.784500" lon="8.522242">
        <ele>82.156894</ele>
        <time>2026-07-07T22:11:01.734Z</time>
      </trkpt>
      <trkpt lat="51.784835" lon="8.521814">
        <ele>82.362272</ele>
        <time>2026-07-07T22:11:11.249Z</time>
      </trkpt>
      <trkpt lat="51.785309" lon="8.521077">
        <ele>82.678602</ele>
        <time>2026-07-07T22:11:25.743Z</time>
      </trkpt>
      <trkpt lat="51.785280" lon="8.520883">
        <ele>82.737986</ele>
        <time>2026-07-07T22:11:28.510Z</time>
      </trkpt>
      <trkpt lat="51.785393" lon="8.520768">
        <ele>82.802211</ele>
        <time>2026-07-07T22:11:31.368Z</time>
      </trkpt>
      <trkpt lat="51.786645" lon="8.518729">
        <ele>83.253983</ele>
        <time>2026-07-07T22:12:09.056Z</time>
      </trkpt>
      <trkpt lat="51.787098" lon="8.517998">
        <ele>83.382094</ele>
        <time>2026-07-07T22:12:23.096Z</time>
      </trkpt>
      <trkpt lat="51.787200" lon="8.517784">
        <ele>83.421081</ele>
        <time>2026-07-07T22:12:26.778Z</time>
      </trkpt>
      <trkpt lat="51.787591" lon="8.516464">
        <ele>83.632284</ele>
        <time>2026-07-07T22:12:46.496Z</time>
      </trkpt>
      <trkpt lat="51.788496" lon="8.513229">
        <ele>83.369143</ele>
        <time>2026-07-07T22:13:31.815Z</time>
      </trkpt>
      <trkpt lat="51.788590" lon="8.513225">
        <ele>83.347475</ele>
        <time>2026-07-07T22:13:33.736Z</time>
      </trkpt>
      <trkpt lat="51.788626" lon="8.513214">
        <ele>83.339208</ele>
        <time>2026-07-07T22:13:34.496Z</time>
      </trkpt>
      <trkpt lat="51.788731" lon="8.513109">
        <ele>83.315724</ele>
        <time>2026-07-07T22:13:37.024Z</time>
      </trkpt>
      <trkpt lat="51.788929" lon="8.512548">
        <ele>83.239729</ele>
        <time>2026-07-07T22:13:45.249Z</time>
      </trkpt>
      <trkpt lat="51.789358" lon="8.511729">
        <ele>83.113459</ele>
        <time>2026-07-07T22:13:58.950Z</time>
      </trkpt>
      <trkpt lat="51.789572" lon="8.512470">
        <ele>83.017242</ele>
        <time>2026-07-07T22:14:09.487Z</time>
      </trkpt>
      <trkpt lat="51.789358" lon="8.511729">
        <ele>82.979895</ele>
        <time>2026-07-07T22:14:20.150Z</time>
      </trkpt>
      <trkpt lat="51.789848" lon="8.510835">
        <ele>82.946958</ele>
        <time>2026-07-07T22:14:35.632Z</time>
      </trkpt>
      <trkpt lat="51.789781" lon="8.510745">
        <ele>82.943074</ele>
        <time>2026-07-07T22:14:38.022Z</time>
      </trkpt>
      <trkpt lat="51.790021" lon="8.510312">
        <ele>82.927042</ele>
        <time>2026-07-07T22:14:45.602Z</time>
      </trkpt>
      <trkpt lat="51.790194" lon="8.510001">
        <ele>82.920987</ele>
        <time>2026-07-07T22:14:51.058Z</time>
      </trkpt>
      <trkpt lat="51.792165" lon="8.507287">
        <ele>82.959905</ele>
        <time>2026-07-07T22:15:45.917Z</time>
      </trkpt>
      <trkpt lat="51.792211" lon="8.507224">
        <ele>82.954516</ele>
        <time>2026-07-07T22:15:47.189Z</time>
      </trkpt>
      <trkpt lat="51.792265" lon="8.507151">
        <ele>82.948223</ele>
        <time>2026-07-07T22:15:48.644Z</time>
      </trkpt>
      <trkpt lat="51.793155" lon="8.505929">
        <ele>82.841597</ele>
        <time>2026-07-07T22:16:12.851Z</time>
      </trkpt>
      <trkpt lat="51.793445" lon="8.505490">
        <ele>82.803459</ele>
        <time>2026-07-07T22:16:21.093Z</time>
      </trkpt>
      <trkpt lat="51.795760" lon="8.501837">
        <ele>82.483661</ele>
        <time>2026-07-07T22:17:28.740Z</time>
      </trkpt>
      <trkpt lat="51.797313" lon="8.499418">
        <ele>82.228333</ele>
        <time>2026-07-07T22:18:13.642Z</time>
      </trkpt>
      <trkpt lat="51.797526" lon="8.499173">
        <ele>82.201693</ele>
        <time>2026-07-07T22:18:19.109Z</time>
      </trkpt>
      <trkpt lat="51.797844" lon="8.498880">
        <ele>82.164393</ele>
        <time>2026-07-07T22:18:26.742Z</time>
      </trkpt>
      <trkpt lat="51.798410" lon="8.498491">
        <ele>82.125514</ele>
        <time>2026-07-07T22:18:39.653Z</time>
      </trkpt>
      <trkpt lat="51.798522" lon="8.498414">
        <ele>82.129553</ele>
        <time>2026-07-07T22:18:42.193Z</time>
      </trkpt>
      <trkpt lat="51.802894" lon="8.495430">
        <ele>82.317859</ele>
        <time>2026-07-07T22:20:22.695Z</time>
      </trkpt>
      <trkpt lat="51.806853" lon="8.492735">
        <ele>82.701563</ele>
        <time>2026-07-07T22:22:51.227Z</time>
      </trkpt>
      <trkpt lat="51.807293" lon="8.492396">
        <ele>82.736028</ele>
        <time>2026-07-07T22:23:08.059Z</time>
      </trkpt>
      <trkpt lat="51.807511" lon="8.492191">
        <ele>82.753861</ele>
        <time>2026-07-07T22:23:16.754Z</time>
      </trkpt>
      <trkpt lat="51.807921" lon="8.491731">
        <ele>82.789148</ele>
        <time>2026-07-07T22:23:34.020Z</time>
      </trkpt>
      <trkpt lat="51.808345" lon="8.491133">
        <ele>82.737669</ele>
        <time>2026-07-07T22:23:53.482Z</time>
      </trkpt>
      <trkpt lat="51.808785" lon="8.490314">
        <ele>82.609182</ele>
        <time>2026-07-07T22:24:16.709Z</time>
      </trkpt>
      <trkpt lat="51.809090" lon="8.489561">
        <ele>82.502579</ele>
        <time>2026-07-07T22:24:36.002Z</time>
      </trkpt>
      <trkpt lat="51.809133" lon="8.489456">
        <ele>82.487664</ele>
        <time>2026-07-07T22:24:38.692Z</time>
      </trkpt>
      <trkpt lat="51.810293" lon="8.486612">
        <ele>82.524733</ele>
        <time>2026-07-07T22:25:23.269Z</time>
      </trkpt>
      <trkpt lat="51.810835" lon="8.485273">
        <ele>82.580181</ele>
        <time>2026-07-07T22:25:44.480Z</time>
      </trkpt>
      <trkpt lat="51.811732" lon="8.483012">
        <ele>82.546351</ele>
        <time>2026-07-07T22:26:19.170Z</time>
      </trkpt>
      <trkpt lat="51.811929" lon="8.482255">
        <ele>82.511276</ele>
        <time>2026-07-07T22:26:29.852Z</time>
      </trkpt>
      <trkpt lat="51.812117" lon="8.481113">
        <ele>82.419336</ele>
        <time>2026-07-07T22:26:45.230Z</time>
      </trkpt>
      <trkpt lat="51.812195" lon="8.480043">
        <ele>82.312490</ele>
        <time>2026-07-07T22:26:59.051Z</time>
      </trkpt>
      <trkpt lat="51.812244" lon="8.477826">
        <ele>82.145858</ele>
        <time>2026-07-07T22:27:27.215Z</time>
      </trkpt>
      <trkpt lat="51.812337" lon="8.477065">
        <ele>82.105860</ele>
        <time>2026-07-07T22:27:37.299Z</time>
      </trkpt>
      <trkpt lat="51.812517" lon="8.476192">
        <ele>82.058408</ele>
        <time>2026-07-07T22:27:49.357Z</time>
      </trkpt>
      <trkpt lat="51.812835" lon="8.476041">
        <ele>82.029106</ele>
        <time>2026-07-07T22:27:56.467Z</time>
      </trkpt>
      <trkpt lat="51.812993" lon="8.475914">
        <ele>82.013322</ele>
        <time>2026-07-07T22:28:00.264Z</time>
      </trkpt>
      <trkpt lat="51.813486" lon="8.475428">
        <ele>81.961675</ele>
        <time>2026-07-07T22:28:12.597Z</time>
      </trkpt>
      <trkpt lat="51.813769" lon="8.475048">
        <ele>81.928772</ele>
        <time>2026-07-07T22:28:20.299Z</time>
      </trkpt>
      <trkpt lat="51.813118" lon="8.472255">
        <ele>81.091763</ele>
        <time>2026-07-07T22:28:57.113Z</time>
      </trkpt>
      <trkpt lat="51.812996" lon="8.471615">
        <ele>80.877976</ele>
        <time>2026-07-07T22:29:05.476Z</time>
      </trkpt>
      <trkpt lat="51.812994" lon="8.471552">
        <ele>80.867141</ele>
        <time>2026-07-07T22:29:06.274Z</time>
      </trkpt>
      <trkpt lat="51.813129" lon="8.467491">
        <ele>80.274746</ele>
        <time>2026-07-07T22:29:58.257Z</time>
      </trkpt>
      <trkpt lat="51.813159" lon="8.466822">
        <ele>80.213672</ele>
        <time>2026-07-07T22:30:06.938Z</time>
      </trkpt>
      <trkpt lat="51.813222" lon="8.466173">
        <ele>80.153855</ele>
        <time>2026-07-07T22:30:15.391Z</time>
      </trkpt>
      <trkpt lat="51.813384" lon="8.465264">
        <ele>80.165583</ele>
        <time>2026-07-07T22:30:27.622Z</time>
      </trkpt>
      <trkpt lat="51.813619" lon="8.464401">
        <ele>80.215664</ele>
        <time>2026-07-07T22:30:40.018Z</time>
      </trkpt>
      <trkpt lat="51.814032" lon="8.463066">
        <ele>80.293818</ele>
        <time>2026-07-07T22:30:59.814Z</time>
      </trkpt>
      <trkpt lat="51.814130" lon="8.462642">
        <ele>80.315375</ele>
        <time>2026-07-07T22:31:05.870Z</time>
      </trkpt>
      <trkpt lat="51.814285" lon="8.461742">
        <ele>80.359867</ele>
        <time>2026-07-07T22:31:18.270Z</time>
      </trkpt>
      <trkpt lat="51.814343" lon="8.461170">
        <ele>80.387470</ele>
        <time>2026-07-07T22:31:25.854Z</time>
      </trkpt>
      <trkpt lat="51.814370" lon="8.460594">
        <ele>80.414979</ele>
        <time>2026-07-07T22:31:33.314Z</time>
      </trkpt>
      <trkpt lat="51.814399" lon="8.458269">
        <ele>80.028256</ele>
        <time>2026-07-07T22:32:02.798Z</time>
      </trkpt>
      <trkpt lat="51.814431" lon="8.457890">
        <ele>79.958602</ele>
        <time>2026-07-07T22:32:07.595Z</time>
      </trkpt>
      <trkpt lat="51.814590" lon="8.456778">
        <ele>79.777777</ele>
        <time>2026-07-07T22:32:21.945Z</time>
      </trkpt>
      <trkpt lat="51.814622" lon="8.456598">
        <ele>79.750157</ele>
        <time>2026-07-07T22:32:24.291Z</time>
      </trkpt>
      <trkpt lat="51.815710" lon="8.449077">
        <ele>78.761040</ele>
        <time>2026-07-07T22:34:03.176Z</time>
      </trkpt>
      <trkpt lat="51.815727" lon="8.448950">
        <ele>78.761484</ele>
        <time>2026-07-07T22:34:04.883Z</time>
      </trkpt>
      <trkpt lat="51.815736" lon="8.448884">
        <ele>78.764364</ele>
        <time>2026-07-07T22:34:05.775Z</time>
      </trkpt>
      <trkpt lat="51.816206" lon="8.445638">
        <ele>78.893733</ele>
        <time>2026-07-07T22:34:49.686Z</time>
      </trkpt>
      <trkpt lat="51.816188" lon="8.445319">
        <ele>78.900429</ele>
        <time>2026-07-07T22:34:53.880Z</time>
      </trkpt>
      <trkpt lat="51.816200" lon="8.445064">
        <ele>78.905775</ele>
        <time>2026-07-07T22:34:57.228Z</time>
      </trkpt>
      <trkpt lat="51.816256" lon="8.444833">
        <ele>78.910962</ele>
        <time>2026-07-07T22:35:00.464Z</time>
      </trkpt>
      <trkpt lat="51.816358" lon="8.444591">
        <ele>78.917085</ele>
        <time>2026-07-07T22:35:04.279Z</time>
      </trkpt>
      <trkpt lat="51.816955" lon="8.440479">
        <ele>78.829798</ele>
        <time>2026-07-07T22:35:59.040Z</time>
      </trkpt>
      <trkpt lat="51.817482" lon="8.436827">
        <ele>78.852232</ele>
        <time>2026-07-07T22:36:48.162Z</time>
      </trkpt>
      <trkpt lat="51.817486" lon="8.436691">
        <ele>78.849316</ele>
        <time>2026-07-07T22:36:49.912Z</time>
      </trkpt>
      <trkpt lat="51.817788" lon="8.434474">
        <ele>78.810209</ele>
        <time>2026-07-07T22:37:19.219Z</time>
      </trkpt>
      <trkpt lat="51.817926" lon="8.433471">
        <ele>78.810209</ele>
        <time>2026-07-07T22:37:32.405Z</time>
      </trkpt>
      <trkpt lat="51.818046" lon="8.432598">
        <ele>78.810209</ele>
        <time>2026-07-07T22:37:43.878Z</time>
      </trkpt>
      <trkpt lat="51.818226" lon="8.431390">
        <ele>78.810209</ele>
        <time>2026-07-07T22:37:59.663Z</time>
      </trkpt>
      <trkpt lat="51.818263" lon="8.431128">
        <ele>78.810209</ele>
        <time>2026-07-07T22:38:03.073Z</time>
      </trkpt>
    </trkseg>
  </trk>
</gpx>